Observation data for Sweetwater on 10/20/2019      Previous  Date  Next       Current Mesonet Observations  Soil Data  Daily Summary Page  Observations in Plain Language
KSW1 200500Z 11006KT 15/06 A2989 RMK A01 T01460063  RH  057%=      5-min Rain = 0
KSW1 200501Z 11006KT 15/06 A2988 RMK A01 T01450063  RH  058%=      5-min Rain = 0
KSW1 200502Z 11006KT 15/06 A2988 RMK A01 T01450063  RH  058%=      5-min Rain = 0
KSW1 200503Z 11006KT 15/06 A2988 RMK A01 T01450063  RH  058%=      5-min Rain = 0
KSW1 200504Z 11006KT 15/06 A2988 RMK A01 T01450063  RH  058%=      5-min Rain = 0
KSW1 200505Z 11006KT 15/06 A2988 RMK A01 T01450063  RH  058%=      5-min Rain = 0
KSW1 200506Z 11007KT 15/06 A2988 RMK A01 T01450064  RH  058%=      5-min Rain = 0
KSW1 200507Z 11007KT 14/06 A2988 RMK A01 T01440064  RH  058%=      5-min Rain = 0
KSW1 200508Z 11007KT 14/06 A2988 RMK A01 T01440064  RH  059%=      5-min Rain = 0
KSW1 200509Z 11007KT 14/06 A2988 RMK A01 T01430064  RH  059%=      5-min Rain = 0
KSW1 200510Z 11007KT 14/06 A2988 RMK A01 T01430064  RH  059%=      5-min Rain = 0
KSW1 200511Z 12007KT 14/06 A2988 RMK A01 T01420064  RH  059%=      5-min Rain = 0
KSW1 200512Z 12007KT 14/06 A2988 RMK A01 T01410063  RH  060%=      5-min Rain = 0
KSW1 200513Z 12007KT 14/06 A2988 RMK A01 T01400063  RH  060%=      5-min Rain = 0
KSW1 200514Z 12007KT 14/06 A2988 RMK A01 T01410063  RH  060%=      5-min Rain = 0
KSW1 200515Z 12007KT 14/06 A2988 RMK A01 T01400063  RH  060%=      5-min Rain = 0
KSW1 200516Z 12007KT 14/06 A2988 RMK A01 T01410063  RH  060%=      5-min Rain = 0
KSW1 200517Z 12006KT 14/06 A2988 RMK A01 T01400064  RH  060%=      5-min Rain = 0
KSW1 200518Z 11006KT 14/06 A2988 RMK A01 T01400063  RH  060%=      5-min Rain = 0
KSW1 200519Z 11006KT 14/06 A2988 RMK A01 T01400063  RH  060%=      5-min Rain = 0
KSW1 200520Z 11006KT 14/06 A2988 RMK A01 T01400063  RH  060%=      5-min Rain = 0
KSW1 200521Z 11006KT 14/06 A2988 RMK A01 T01400063  RH  060%=      5-min Rain = 0
KSW1 200522Z 12006KT 14/06 A2988 RMK A01 T01400063  RH  060%=      5-min Rain = 0
KSW1 200523Z 12006KT 14/06 A2988 RMK A01 T01400064  RH  060%=      5-min Rain = 0
KSW1 200524Z 12007KT 14/06 A2988 RMK A01 T01390064  RH  060%=      5-min Rain = 0
KSW1 200525Z 12007KT 14/06 A2988 RMK A01 T01390064  RH  060%=      5-min Rain = 0
KSW1 200526Z 12007KT 14/06 A2988 RMK A01 T01380064  RH  061%=      5-min Rain = 0
KSW1 200527Z 12008KT 14/06 A2988 RMK A01 T01380064  RH  061%=      5-min Rain = 0
KSW1 200528Z 12007KT 14/06 A2988 RMK A01 T01370064  RH  061%=      5-min Rain = 0
KSW1 200529Z 12007KT 14/06 A2988 RMK A01 T01370064  RH  062%=      5-min Rain = 0
KSW1 200530Z 12007KT 14/06 A2987 RMK A01 T01360064  RH  062%=      5-min Rain = 0
KSW1 200531Z 12007KT 14/06 A2987 RMK A01 T01360064  RH  062%=      5-min Rain = 0
KSW1 200532Z 12007KT 14/06 A2987 RMK A01 T01350064  RH  062%=      5-min Rain = 0
KSW1 200533Z 12007KT 14/07 A2987 RMK A01 T01350065  RH  062%=      5-min Rain = 0
KSW1 200534Z 12007KT 14/07 A2988 RMK A01 T01350065  RH  063%=      5-min Rain = 0
KSW1 200535Z 12007KT 14/07 A2987 RMK A01 T01350065  RH  063%=      5-min Rain = 0
KSW1 200536Z 12008KT 13/07 A2987 RMK A01 T01340065  RH  063%=      5-min Rain = 0
KSW1 200537Z 13008KT 14/07 A2987 RMK A01 T01350065  RH  063%=      5-min Rain = 0
KSW1 200538Z 12007KT 14/07 A2987 RMK A01 T01350065  RH  063%=      5-min Rain = 0
KSW1 200539Z 13008KT 14/07 A2987 RMK A01 T01350065  RH  063%=      5-min Rain = 0
KSW1 200540Z 12007KT 14/07 A2987 RMK A01 T01350065  RH  062%=      5-min Rain = 0
KSW1 200541Z 12007KT 14/07 A2987 RMK A01 T01360065  RH  063%=      5-min Rain = 0
KSW1 200542Z 12007KT 14/07 A2987 RMK A01 T01350065  RH  063%=      5-min Rain = 0
KSW1 200543Z 12007KT 14/07 A2987 RMK A01 T01350065  RH  063%=      5-min Rain = 0
KSW1 200544Z 12007KT 14/07 A2987 RMK A01 T01350066  RH  063%=      5-min Rain = 0
KSW1 200545Z 12007KT 14/07 A2987 RMK A01 T01350065  RH  063%=      5-min Rain = 0
KSW1 200546Z 12007KT 14/07 A2987 RMK A01 T01360065  RH  062%=      5-min Rain = 0
KSW1 200547Z 12007KT 14/07 A2987 RMK A01 T01360065  RH  062%=      5-min Rain = 0
KSW1 200548Z 12006KT 14/07 A2987 RMK A01 T01360065  RH  062%=      5-min Rain = 0
KSW1 200549Z 12007KT 14/07 A2987 RMK A01 T01360065  RH  062%=      5-min Rain = 0
KSW1 200550Z 12007KT 14/07 A2987 RMK A01 T01360065  RH  062%=      5-min Rain = 0
KSW1 200551Z 12007KT 14/07 A2987 RMK A01 T01360066  RH  063%=      5-min Rain = 0
KSW1 200552Z 12006KT 14/07 A2987 RMK A01 T01360066  RH  063%=      5-min Rain = 0
KSW1 200553Z 12007KT 14/07 A2987 RMK A01 T01350065  RH  063%=      5-min Rain = 0
KSW1 200554Z 12007KT 14/07 A2987 RMK A01 T01350065  RH  063%=      5-min Rain = 0
KSW1 200555Z 12007KT 14/07 A2987 RMK A01 T01350066  RH  063%=      5-min Rain = 0
KSW1 200556Z 12007KT 14/07 A2987 RMK A01 T01350066  RH  063%=      5-min Rain = 0
KSW1 200557Z 12007KT 13/07 A2987 RMK A01 T01340066  RH  063%=      5-min Rain = 0
KSW1 200558Z 12007KT 13/07 A2987 RMK A01 T01340066  RH  063%=      5-min Rain = 0
KSW1 200559Z 12007KT 13/07 A2987 RMK A01 T01340066  RH  063%=      5-min Rain = 0
KSW1 200600Z 12007KT 13/07 A2987 RMK A01 T01340066  RH  063%=      5-min Rain = 0
KSW1 200601Z 12007KT 13/07 A2987 RMK A01 T01340066  RH  063%=      5-min Rain = 0
KSW1 200602Z 12006KT 13/07 A2987 RMK A01 T01340066  RH  063%=      5-min Rain = 0
KSW1 200603Z 12006KT 13/07 A2987 RMK A01 T01340065  RH  063%=      5-min Rain = 0
KSW1 200604Z 12006KT 13/07 A2987 RMK A01 T01340065  RH  063%=      5-min Rain = 0
KSW1 200605Z 12006KT 13/07 A2987 RMK A01 T01340065  RH  063%=      5-min Rain = 0
KSW1 200606Z 11006KT 13/07 A2987 RMK A01 T01340065  RH  063%=      5-min Rain = 0
KSW1 200607Z 11006KT 13/07 A2986 RMK A01 T01340065  RH  063%=      5-min Rain = 0
KSW1 200608Z 11007KT 13/07 A2986 RMK A01 T01340065  RH  063%=      5-min Rain = 0
KSW1 200609Z 11007KT 14/07 A2986 RMK A01 T01350065  RH  063%=      5-min Rain = 0
KSW1 200610Z 11007KT 14/07 A2986 RMK A01 T01350065  RH  063%=      5-min Rain = 0
KSW1 200611Z 11007KT 14/07 A2986 RMK A01 T01350065  RH  063%=      5-min Rain = 0
KSW1 200612Z 11007KT 14/07 A2986 RMK A01 T01350065  RH  063%=      5-min Rain = 0
KSW1 200613Z 11007KT 14/07 A2986 RMK A01 T01350065  RH  063%=      5-min Rain = 0
KSW1 200614Z 11006KT 14/07 A2986 RMK A01 T01350065  RH  063%=      5-min Rain = 0
KSW1 200615Z 11006KT 14/07 A2986 RMK A01 T01350065  RH  063%=      5-min Rain = 0
KSW1 200616Z 11006KT 14/07 A2986 RMK A01 T01360066  RH  063%=      5-min Rain = 0
KSW1 200617Z 11006KT 14/07 A2986 RMK A01 T01360066  RH  062%=      5-min Rain = 0
KSW1 200618Z 11006KT 14/07 A2986 RMK A01 T01370066  RH  062%=      5-min Rain = 0
KSW1 200619Z 11006KT 14/07 A2986 RMK A01 T01390066  RH  062%=      5-min Rain = 0
KSW1 200620Z 12006KT 14/07 A2986 RMK A01 T01390066  RH  061%=      5-min Rain = 0
KSW1 200621Z 12007KT 14/07 A2986 RMK A01 T01390066  RH  061%=      5-min Rain = 0
KSW1 200622Z 12007KT 14/07 A2986 RMK A01 T01380066  RH  062%=      5-min Rain = 0
KSW1 200623Z 12008KT 14/07 A2986 RMK A01 T01360066  RH  062%=      5-min Rain = 0
KSW1 200624Z 12008KT 14/07 A2986 RMK A01 T01350066  RH  063%=      5-min Rain = 0
KSW1 200625Z 12008KT 13/07 A2986 RMK A01 T01340066  RH  063%=      5-min Rain = 0
KSW1 200626Z 12008KT 13/07 A2986 RMK A01 T01340066  RH  063%=      5-min Rain = 0
KSW1 200627Z 13008KT 13/07 A2986 RMK A01 T01340066  RH  063%=      5-min Rain = 0
KSW1 200628Z 13007KT 13/07 A2986 RMK A01 T01340066  RH  063%=      5-min Rain = 0
KSW1 200629Z 13007KT 13/07 A2986 RMK A01 T01340065  RH  063%=      5-min Rain = 0
KSW1 200630Z 13007KT 13/07 A2986 RMK A01 T01340066  RH  063%=      5-min Rain = 0
KSW1 200631Z 13007KT 13/07 A2986 RMK A01 T01340066  RH  063%=      5-min Rain = 0
KSW1 200632Z 13007KT 14/07 A2986 RMK A01 T01350066  RH  063%=      5-min Rain = 0
KSW1 200633Z 13007KT 13/07 A2986 RMK A01 T01340065  RH  063%=      5-min Rain = 0
KSW1 200634Z 13007KT 14/07 A2986 RMK A01 T01350066  RH  063%=      5-min Rain = 0
KSW1 200635Z 12007KT 14/07 A2986 RMK A01 T01350065  RH  063%=      5-min Rain = 0
KSW1 200636Z 12007KT 13/07 A2986 RMK A01 T01340066  RH  063%=      5-min Rain = 0
KSW1 200637Z 12007KT 13/07 A2986 RMK A01 T01340066  RH  063%=      5-min Rain = 0
KSW1 200638Z 12008KT 13/07 A2986 RMK A01 T01340065  RH  063%=      5-min Rain = 0
KSW1 200639Z 12008KT 13/07 A2986 RMK A01 T01340065  RH  063%=      5-min Rain = 0
KSW1 200640Z 12008KT 13/07 A2986 RMK A01 T01340066  RH  063%=      5-min Rain = 0
KSW1 200641Z 12008KT 13/07 A2986 RMK A01 T01340066  RH  063%=      5-min Rain = 0
KSW1 200642Z 13009KT 13/07 A2986 RMK A01 T01340066  RH  063%=      5-min Rain = 0
KSW1 200643Z 13008KT 14/07 A2986 RMK A01 T01350066  RH  063%=      5-min Rain = 0
KSW1 200644Z 13008KT 14/07 A2986 RMK A01 T01350066  RH  063%=      5-min Rain = 0
KSW1 200645Z 12008KT 14/07 A2986 RMK A01 T01360066  RH  063%=      5-min Rain = 0
KSW1 200646Z 12008KT 14/07 A2986 RMK A01 T01370067  RH  062%=      5-min Rain = 0
KSW1 200647Z 13007KT 14/07 A2986 RMK A01 T01370066  RH  062%=      5-min Rain = 0
KSW1 200648Z 12007KT 14/07 A2986 RMK A01 T01370066  RH  062%=      5-min Rain = 0
KSW1 200649Z 12006KT 14/07 A2986 RMK A01 T01380066  RH  062%=      5-min Rain = 0
KSW1 200650Z 12006KT 14/07 A2986 RMK A01 T01390066  RH  061%=      5-min Rain = 0
KSW1 200651Z 12006KT 14/07 A2986 RMK A01 T01390066  RH  061%=      5-min Rain = 0
KSW1 200652Z 12007KT 14/07 A2986 RMK A01 T01390066  RH  061%=      5-min Rain = 0
KSW1 200653Z 13007KT 14/07 A2986 RMK A01 T01390066  RH  062%=      5-min Rain = 0
KSW1 200654Z 13008KT 14/07 A2986 RMK A01 T01380066  RH  062%=      5-min Rain = 0
KSW1 200655Z 13008KT 14/07 A2985 RMK A01 T01370066  RH  062%=      5-min Rain = 0
KSW1 200656Z 13008KT 14/07 A2985 RMK A01 T01370066  RH  062%=      5-min Rain = 0
KSW1 200657Z 13009KT 14/07 A2985 RMK A01 T01370066  RH  062%=      5-min Rain = 0
KSW1 200658Z 13009KT 14/07 A2985 RMK A01 T01380066  RH  062%=      5-min Rain = 0
KSW1 200659Z 13008KT 14/07 A2985 RMK A01 T01380066  RH  062%=      5-min Rain = 0
KSW1 200700Z 13009KT 14/07 A2985 RMK A01 T01380066  RH  062%=      5-min Rain = 0
KSW1 200701Z 13009KT 14/07 A2985 RMK A01 T01380066  RH  062%=      5-min Rain = 0
KSW1 200702Z 13009KT 14/07 A2985 RMK A01 T01380066  RH  062%=      5-min Rain = 0
KSW1 200703Z 13008KT 14/07 A2985 RMK A01 T01380066  RH  062%=      5-min Rain = 0
KSW1 200704Z 13009KT 14/07 A2985 RMK A01 T01370066  RH  062%=      5-min Rain = 0
KSW1 200705Z 13009KT 14/07 A2985 RMK A01 T01360066  RH  062%=      5-min Rain = 0
KSW1 200706Z 13010KT 14/07 A2985 RMK A01 T01360066  RH  062%=      5-min Rain = 0
KSW1 200707Z 13010KT 14/07 A2985 RMK A01 T01360066  RH  063%=      5-min Rain = 0
KSW1 200708Z 13010KT 14/07 A2985 RMK A01 T01360066  RH  062%=      5-min Rain = 0
KSW1 200709Z 13009KT 14/07 A2985 RMK A01 T01360066  RH  062%=      5-min Rain = 0
KSW1 200710Z 13009KT 14/07 A2985 RMK A01 T01370065  RH  062%=      5-min Rain = 0
KSW1 200711Z 12009KT 14/07 A2985 RMK A01 T01370066  RH  062%=      5-min Rain = 0
KSW1 200712Z 12009KT 14/07 A2985 RMK A01 T01380065  RH  062%=      5-min Rain = 0
KSW1 200713Z 12009KT 14/07 A2985 RMK A01 T01380065  RH  062%=      5-min Rain = 0
KSW1 200714Z 12009KT 14/07 A2985 RMK A01 T01380065  RH  061%=      5-min Rain = 0
KSW1 200715Z 12009KT 14/07 A2985 RMK A01 T01380066  RH  062%=      5-min Rain = 0
KSW1 200716Z 12010KT 14/07 A2985 RMK A01 T01370066  RH  062%=      5-min Rain = 0
KSW1 200717Z 12010KT 14/07 A2985 RMK A01 T01370066  RH  062%=      5-min Rain = 0
KSW1 200718Z 12010KT 14/07 A2985 RMK A01 T01370066  RH  062%=      5-min Rain = 0
KSW1 200719Z 13010KT 14/07 A2985 RMK A01 T01370066  RH  062%=      5-min Rain = 0
KSW1 200720Z 12010KT 14/07 A2985 RMK A01 T01370066  RH  062%=      5-min Rain = 0
KSW1 200721Z 12010KT 14/07 A2985 RMK A01 T01380066  RH  062%=      5-min Rain = 0
KSW1 200722Z 12010KT 14/07 A2985 RMK A01 T01380066  RH  062%=      5-min Rain = 0
KSW1 200723Z 12010KT 14/07 A2985 RMK A01 T01390066  RH  061%=      5-min Rain = 0
KSW1 200724Z 12010KT 14/07 A2985 RMK A01 T01400066  RH  061%=      5-min Rain = 0
KSW1 200725Z 12010KT 14/07 A2985 RMK A01 T01400066  RH  061%=      5-min Rain = 0
KSW1 200726Z 12009KT 14/07 A2985 RMK A01 T01400066  RH  061%=      5-min Rain = 0
KSW1 200727Z 12009KT 14/07 A2985 RMK A01 T01390066  RH  061%=      5-min Rain = 0
KSW1 200728Z 12010KT 14/07 A2985 RMK A01 T01390066  RH  061%=      5-min Rain = 0
KSW1 200729Z 12010KT 14/07 A2985 RMK A01 T01380066  RH  062%=      5-min Rain = 0
KSW1 200730Z 12009KT 14/07 A2985 RMK A01 T01380066  RH  062%=      5-min Rain = 0
KSW1 200731Z 12009KT 14/07 A2985 RMK A01 T01370066  RH  062%=      5-min Rain = 0
KSW1 200732Z 12010KT 14/07 A2985 RMK A01 T01370066  RH  062%=      5-min Rain = 0
KSW1 200733Z 12010KT 14/07 A2985 RMK A01 T01370066  RH  062%=      5-min Rain = 0
KSW1 200734Z 12010KT 14/07 A2985 RMK A01 T01360065  RH  062%=      5-min Rain = 0
KSW1 200735Z 12010KT 14/07 A2985 RMK A01 T01360065  RH  062%=      5-min Rain = 0
KSW1 200736Z 12010KT 14/07 A2985 RMK A01 T01360065  RH  062%=      5-min Rain = 0
KSW1 200737Z 13010KT 14/07 A2985 RMK A01 T01360065  RH  062%=      5-min Rain = 0
KSW1 200738Z 12010KT 14/07 A2985 RMK A01 T01360065  RH  062%=      5-min Rain = 0
KSW1 200739Z 13010KT 14/07 A2985 RMK A01 T01370066  RH  062%=      5-min Rain = 0
KSW1 200740Z 13010KT 14/07 A2985 RMK A01 T01370065  RH  062%=      5-min Rain = 0
KSW1 200741Z 13010KT 14/07 A2985 RMK A01 T01380065  RH  062%=      5-min Rain = 0
KSW1 200742Z 13010KT 14/07 A2985 RMK A01 T01380065  RH  062%=      5-min Rain = 0
KSW1 200743Z 13010KT 14/07 A2984 RMK A01 T01380066  RH  062%=      5-min Rain = 0
KSW1 200744Z 13010KT 14/07 A2984 RMK A01 T01380065  RH  062%=      5-min Rain = 0
KSW1 200745Z 13009KT 14/07 A2984 RMK A01 T01380065  RH  061%=      5-min Rain = 0
KSW1 200746Z 13009KT 14/07 A2984 RMK A01 T01390065  RH  061%=      5-min Rain = 0
KSW1 200747Z 13009KT 14/07 A2984 RMK A01 T01390065  RH  061%=      5-min Rain = 0
KSW1 200748Z 13008KT 14/07 A2984 RMK A01 T01400065  RH  061%=      5-min Rain = 0
KSW1 200749Z 13008KT 14/07 A2984 RMK A01 T01390065  RH  061%=      5-min Rain = 0
KSW1 200750Z 13008KT 14/07 A2984 RMK A01 T01400065  RH  061%=      5-min Rain = 0
KSW1 200751Z 13008KT 14/07 A2984 RMK A01 T01400065  RH  060%=      5-min Rain = 0
KSW1 200752Z 13008KT 14/07 A2984 RMK A01 T01400065  RH  060%=      5-min Rain = 0
KSW1 200753Z 13008KT 14/07 A2984 RMK A01 T01410065  RH  060%=      5-min Rain = 0
KSW1 200754Z 13009KT 14/07 A2984 RMK A01 T01410065  RH  061%=      5-min Rain = 0
KSW1 200755Z 13009KT 14/07 A2984 RMK A01 T01400065  RH  060%=      5-min Rain = 0
KSW1 200756Z 13008KT 14/07 A2984 RMK A01 T01410065  RH  060%=      5-min Rain = 0
KSW1 200757Z 13008KT 14/07 A2984 RMK A01 T01410065  RH  060%=      5-min Rain = 0
KSW1 200758Z 13007KT 14/07 A2984 RMK A01 T01410065  RH  060%=      5-min Rain = 0
KSW1 200759Z 13007KT 14/07 A2984 RMK A01 T01420065  RH  060%=      5-min Rain = 0
KSW1 200800Z 12007KT 14/07 A2984 RMK A01 T01420065  RH  060%=      5-min Rain = 0
KSW1 200801Z 13008KT 14/07 A2984 RMK A01 T01410065  RH  060%=      5-min Rain = 0
KSW1 200802Z 13008KT 14/07 A2984 RMK A01 T01400065  RH  061%=      5-min Rain = 0
KSW1 200803Z 13008KT 14/07 A2984 RMK A01 T01400065  RH  061%=      5-min Rain = 0
KSW1 200804Z 13008KT 14/07 A2984 RMK A01 T01400065  RH  061%=      5-min Rain = 0
KSW1 200805Z 13007KT 14/07 A2984 RMK A01 T01390066  RH  061%=      5-min Rain = 0
KSW1 200806Z 13007KT 14/07 A2984 RMK A01 T01380065  RH  061%=      5-min Rain = 0
KSW1 200807Z 13007KT 14/07 A2984 RMK A01 T01370065  RH  062%=      5-min Rain = 0
KSW1 200808Z 13007KT 14/07 A2984 RMK A01 T01370065  RH  062%=      5-min Rain = 0
KSW1 200809Z 13007KT 14/07 A2984 RMK A01 T01360065  RH  062%=      5-min Rain = 0
KSW1 200810Z 13007KT 14/07 A2984 RMK A01 T01350065  RH  062%=      5-min Rain = 0
KSW1 200811Z 13007KT 13/07 A2984 RMK A01 T01340065  RH  063%=      5-min Rain = 0
KSW1 200812Z 13008KT 13/07 A2984 RMK A01 T01340065  RH  063%=      5-min Rain = 0
KSW1 200813Z 13007KT 13/07 A2984 RMK A01 T01330065  RH  063%=      5-min Rain = 0
KSW1 200814Z 13008KT 13/07 A2984 RMK A01 T01320065  RH  064%=      5-min Rain = 0
KSW1 200815Z 13007KT 13/07 A2984 RMK A01 T01330065  RH  064%=      5-min Rain = 0
KSW1 200816Z 14008KT 13/07 A2984 RMK A01 T01320065  RH  064%=      5-min Rain = 0
KSW1 200817Z 14008KT 13/07 A2984 RMK A01 T01330065  RH  064%=      5-min Rain = 0
KSW1 200818Z 14008KT 13/07 A2984 RMK A01 T01320065  RH  064%=      5-min Rain = 0
KSW1 200819Z 14008KT 13/07 A2984 RMK A01 T01320065  RH  064%=      5-min Rain = 0
KSW1 200820Z 14008KT 13/07 A2984 RMK A01 T01330065  RH  063%=      5-min Rain = 0
KSW1 200821Z 14008KT 13/07 A2984 RMK A01 T01340065  RH  063%=      5-min Rain = 0
KSW1 200822Z 14008KT 14/07 A2984 RMK A01 T01350065  RH  062%=      5-min Rain = 0
KSW1 200823Z 14008KT 14/07 A2984 RMK A01 T01370066  RH  062%=      5-min Rain = 0
KSW1 200824Z 13009KT 14/07 A2984 RMK A01 T01380065  RH  062%=      5-min Rain = 0
KSW1 200825Z 13009KT 14/07 A2984 RMK A01 T01390065  RH  061%=      5-min Rain = 0
KSW1 200826Z 14008KT 14/07 A2984 RMK A01 T01400066  RH  061%=      5-min Rain = 0
KSW1 200827Z 13007KT 14/07 A2984 RMK A01 T01410066  RH  061%=      5-min Rain = 0
KSW1 200828Z 13007KT 14/07 A2984 RMK A01 T01410066  RH  060%=      5-min Rain = 0
KSW1 200829Z 13008KT 14/07 A2984 RMK A01 T01420066  RH  060%=      5-min Rain = 0
KSW1 200830Z 14008KT 14/07 A2984 RMK A01 T01410066  RH  061%=      5-min Rain = 0
KSW1 200831Z 14008KT 14/07 A2984 RMK A01 T01410066  RH  060%=      5-min Rain = 0
KSW1 200832Z 14008KT 14/07 A2984 RMK A01 T01420066  RH  060%=      5-min Rain = 0
KSW1 200833Z 14008KT 14/07 A2984 RMK A01 T01420066  RH  060%=      5-min Rain = 0
KSW1 200834Z 14008KT 14/07 A2984 RMK A01 T01430066  RH  060%=      5-min Rain = 0
KSW1 200835Z 14008KT 14/07 A2984 RMK A01 T01430066  RH  060%=      5-min Rain = 0
KSW1 200836Z 14008KT 14/07 A2984 RMK A01 T01420066  RH  060%=      5-min Rain = 0
KSW1 200837Z 14008KT 14/07 A2984 RMK A01 T01420066  RH  060%=      5-min Rain = 0
KSW1 200838Z 14007KT 14/07 A2984 RMK A01 T01420067  RH  060%=      5-min Rain = 0
KSW1 200839Z 14007KT 14/07 A2984 RMK A01 T01420067  RH  061%=      5-min Rain = 0
KSW1 200840Z 14007KT 14/07 A2984 RMK A01 T01410067  RH  061%=      5-min Rain = 0
KSW1 200841Z 14007KT 14/07 A2984 RMK A01 T01400066  RH  061%=      5-min Rain = 0
KSW1 200842Z 14007KT 14/07 A2984 RMK A01 T01400067  RH  061%=      5-min Rain = 0
KSW1 200843Z 13007KT 14/07 A2984 RMK A01 T01400066  RH  061%=      5-min Rain = 0
KSW1 200844Z 13008KT 14/07 A2984 RMK A01 T01400067  RH  061%=      5-min Rain = 0
KSW1 200845Z 13008KT 14/07 A2984 RMK A01 T01390066  RH  061%=      5-min Rain = 0
KSW1 200846Z 13008KT 14/07 A2984 RMK A01 T01390067  RH  062%=      5-min Rain = 0
KSW1 200847Z 13007KT 14/07 A2984 RMK A01 T01390067  RH  062%=      5-min Rain = 0
KSW1 200848Z 13008KT 14/07 A2984 RMK A01 T01390067  RH  062%=      5-min Rain = 0
KSW1 200849Z 13007KT 14/07 A2984 RMK A01 T01390067  RH  062%=      5-min Rain = 0
KSW1 200850Z 13008KT 14/07 A2984 RMK A01 T01390067  RH  062%=      5-min Rain = 0
KSW1 200851Z 13008KT 14/07 A2984 RMK A01 T01390067  RH  062%=      5-min Rain = 0
KSW1 200852Z 14007KT 14/07 A2984 RMK A01 T01390067  RH  062%=      5-min Rain = 0
KSW1 200853Z 13008KT 14/07 A2984 RMK A01 T01390067  RH  062%=      5-min Rain = 0
KSW1 200854Z 13008KT 14/07 A2984 RMK A01 T01380067  RH  062%=      5-min Rain = 0
KSW1 200855Z 14008KT 14/07 A2984 RMK A01 T01390067  RH  062%=      5-min Rain = 0
KSW1 200856Z 14008KT 14/07 A2984 RMK A01 T01390067  RH  062%=      5-min Rain = 0
KSW1 200857Z 14008KT 14/07 A2984 RMK A01 T01390067  RH  062%=      5-min Rain = 0
KSW1 200858Z 14008KT 14/07 A2983 RMK A01 T01390067  RH  062%=      5-min Rain = 0
KSW1 200859Z 14008KT 14/07 A2983 RMK A01 T01390067  RH  062%=      5-min Rain = 0
KSW1 200900Z 14008KT 14/07 A2983 RMK A01 T01400068  RH  062%=      5-min Rain = 0
KSW1 200901Z 14008KT 14/07 A2983 RMK A01 T01390067  RH  062%=      5-min Rain = 0
KSW1 200902Z 14008KT 14/07 A2983 RMK A01 T01390068  RH  062%=      5-min Rain = 0
KSW1 200903Z 14007KT 14/07 A2983 RMK A01 T01390068  RH  062%=      5-min Rain = 0
KSW1 200904Z 14008KT 14/07 A2983 RMK A01 T01380067  RH  062%=      5-min Rain = 0
KSW1 200905Z 14008KT 14/07 A2983 RMK A01 T01390067  RH  062%=      5-min Rain = 0
KSW1 200906Z 13008KT 14/07 A2983 RMK A01 T01400067  RH  062%=      5-min Rain = 0
KSW1 200907Z 14008KT 14/07 A2983 RMK A01 T01400067  RH  062%=      5-min Rain = 0
KSW1 200908Z 14008KT 14/07 A2983 RMK A01 T01400068  RH  062%=      5-min Rain = 0
KSW1 200909Z 14009KT 14/07 A2983 RMK A01 T01400068  RH  062%=      5-min Rain = 0
KSW1 200910Z 14008KT 14/07 A2983 RMK A01 T01410068  RH  061%=      5-min Rain = 0
KSW1 200911Z 14009KT 14/07 A2983 RMK A01 T01410068  RH  061%=      5-min Rain = 0
KSW1 200912Z 14008KT 14/07 A2983 RMK A01 T01420068  RH  061%=      5-min Rain = 0
KSW1 200913Z 14009KT 14/07 A2983 RMK A01 T01430069  RH  061%=      5-min Rain = 0
KSW1 200914Z 14007KT 14/07 A2983 RMK A01 T01430069  RH  061%=      5-min Rain = 0
KSW1 200915Z 14008KT 14/07 A2983 RMK A01 T01440069  RH  061%=      5-min Rain = 0
KSW1 200916Z 14008KT 14/07 A2983 RMK A01 T01440069  RH  061%=      5-min Rain = 0
KSW1 200917Z 14008KT 14/07 A2983 RMK A01 T01440069  RH  060%=      5-min Rain = 0
KSW1 200918Z 14008KT 15/07 A2983 RMK A01 T01450070  RH  061%=      5-min Rain = 0
KSW1 200919Z 14007KT 15/07 A2983 RMK A01 T01450070  RH  061%=      5-min Rain = 0
KSW1 200920Z 14008KT 15/07 A2983 RMK A01 T01460071  RH  061%=      5-min Rain = 0
KSW1 200921Z 14008KT 15/07 A2983 RMK A01 T01460072  RH  061%=      5-min Rain = 0
KSW1 200922Z 14008KT 15/07 A2983 RMK A01 T01470072  RH  061%=      5-min Rain = 0
KSW1 200923Z 15009KT 15/07 A2983 RMK A01 T01480073  RH  061%=      5-min Rain = 0
KSW1 200924Z 14008KT 15/07 A2983 RMK A01 T01490073  RH  060%=      5-min Rain = 0
KSW1 200925Z 14010KT 15/07 A2983 RMK A01 T01490073  RH  060%=      5-min Rain = 0
KSW1 200926Z 14009KT 15/07 A2983 RMK A01 T01500074  RH  060%=      5-min Rain = 0
KSW1 200927Z 14010KT 15/07 A2983 RMK A01 T01510074  RH  060%=      5-min Rain = 0
KSW1 200928Z 14010KT 15/07 A2983 RMK A01 T01520074  RH  059%=      5-min Rain = 0
KSW1 200929Z 14009KT 15/07 A2983 RMK A01 T01530074  RH  059%=      5-min Rain = 0
KSW1 200930Z 14010KT 15/07 A2983 RMK A01 T01540074  RH  059%=      5-min Rain = 0
KSW1 200931Z 14010KT 15/08 A2983 RMK A01 T01530075  RH  059%=      5-min Rain = 0
KSW1 200932Z 14009KT 15/08 A2983 RMK A01 T01530075  RH  059%=      5-min Rain = 0
KSW1 200933Z 14009KT 15/08 A2983 RMK A01 T01530075  RH  060%=      5-min Rain = 0
KSW1 200934Z 14009KT 15/08 A2983 RMK A01 T01530075  RH  060%=      5-min Rain = 0
KSW1 200935Z 14010KT 15/08 A2983 RMK A01 T01530075  RH  060%=      5-min Rain = 0
KSW1 200936Z 14010KT 15/08 A2983 RMK A01 T01530075  RH  060%=      5-min Rain = 0
KSW1 200937Z 15010KT 15/08 A2983 RMK A01 T01530075  RH  060%=      5-min Rain = 0
KSW1 200938Z 14010KT 15/08 A2983 RMK A01 T01530076  RH  060%=      5-min Rain = 0
KSW1 200939Z 14009KT 15/08 A2983 RMK A01 T01530076  RH  060%=      5-min Rain = 0
KSW1 200940Z 14009KT 15/08 A2983 RMK A01 T01530076  RH  060%=      5-min Rain = 0
KSW1 200941Z 14009KT 15/08 A2983 RMK A01 T01530076  RH  060%=      5-min Rain = 0
KSW1 200942Z 14009KT 15/08 A2983 RMK A01 T01530076  RH  060%=      5-min Rain = 0
KSW1 200943Z 14009KT 15/08 A2983 RMK A01 T01530076  RH  060%=      5-min Rain = 0
KSW1 200944Z 14010KT 15/08 A2983 RMK A01 T01520076  RH  060%=      5-min Rain = 0
KSW1 200945Z 14010KT 15/08 A2983 RMK A01 T01520076  RH  060%=      5-min Rain = 0
KSW1 200946Z 14008KT 15/08 A2983 RMK A01 T01520076  RH  060%=      5-min Rain = 0
KSW1 200947Z 14011KT 15/08 A2983 RMK A01 T01520076  RH  060%=      5-min Rain = 0
KSW1 200948Z 14011KT 15/08 A2982 RMK A01 T01520076  RH  060%=      5-min Rain = 0
KSW1 200949Z 15010KT 15/08 A2982 RMK A01 T01520076  RH  060%=      5-min Rain = 0
KSW1 200950Z 14010KT 15/08 A2982 RMK A01 T01520077  RH  061%=      5-min Rain = 0
KSW1 200951Z 15009KT 15/08 A2982 RMK A01 T01520077  RH  061%=      5-min Rain = 0
KSW1 200952Z 14009KT 15/08 A2982 RMK A01 T01520077  RH  061%=      5-min Rain = 0
KSW1 200953Z 14010KT 15/08 A2982 RMK A01 T01510077  RH  061%=      5-min Rain = 0
KSW1 200954Z 14010KT 15/08 A2982 RMK A01 T01500077  RH  061%=      5-min Rain = 0
KSW1 200955Z 15009KT 15/08 A2982 RMK A01 T01510077  RH  061%=      5-min Rain = 0
KSW1 200956Z 14009KT 15/08 A2982 RMK A01 T01510077  RH  061%=      5-min Rain = 0
KSW1 200957Z 14009KT 15/08 A2982 RMK A01 T01500077  RH  062%=      5-min Rain = 0
KSW1 200958Z 14010KT 15/08 A2982 RMK A01 T01500078  RH  062%=      5-min Rain = 0
KSW1 200959Z 15010KT 15/08 A2982 RMK A01 T01500078  RH  062%=      5-min Rain = 0
KSW1 201000Z 14009KT 15/08 A2982 RMK A01 T01500077  RH  062%=      5-min Rain = 0
KSW1 201001Z 14009KT 15/08 A2982 RMK A01 T01500078  RH  062%=      5-min Rain = 0
KSW1 201002Z 15010KT 15/08 A2982 RMK A01 T01500078  RH  062%=      5-min Rain = 0
KSW1 201003Z 15009KT 15/08 A2982 RMK A01 T01500078  RH  062%=      5-min Rain = 0
KSW1 201004Z 15011KT 15/08 A2982 RMK A01 T01500078  RH  062%=      5-min Rain = 0
KSW1 201005Z 15010KT 15/08 A2982 RMK A01 T01500078  RH  062%=      5-min Rain = 0
KSW1 201006Z 15008KT 15/08 A2982 RMK A01 T01500078  RH  062%=      5-min Rain = 0
KSW1 201007Z 15008KT 15/08 A2982 RMK A01 T01510079  RH  062%=      5-min Rain = 0
KSW1 201008Z 15009KT 15/08 A2982 RMK A01 T01510079  RH  062%=      5-min Rain = 0
KSW1 201009Z 15008KT 15/08 A2982 RMK A01 T01510079  RH  062%=      5-min Rain = 0
KSW1 201010Z 15009KT 15/08 A2982 RMK A01 T01500079  RH  062%=      5-min Rain = 0
KSW1 201011Z 15010KT 15/08 A2982 RMK A01 T01500079  RH  062%=      5-min Rain = 0
KSW1 201012Z 15010KT 15/08 A2982 RMK A01 T01510079  RH  062%=      5-min Rain = 0
KSW1 201013Z 15010KT 15/08 A2982 RMK A01 T01510079  RH  062%=      5-min Rain = 0
KSW1 201014Z 15010KT 15/08 A2982 RMK A01 T01520079  RH  062%=      5-min Rain = 0
KSW1 201015Z 15009KT 15/08 A2982 RMK A01 T01520079  RH  062%=      5-min Rain = 0
KSW1 201016Z 15009KT 15/08 A2982 RMK A01 T01520080  RH  062%=      5-min Rain = 0
KSW1 201017Z 15009KT 15/08 A2982 RMK A01 T01520080  RH  062%=      5-min Rain = 0
KSW1 201018Z 15010KT 15/08 A2982 RMK A01 T01520080  RH  062%=      5-min Rain = 0
KSW1 201019Z 15010KT 15/08 A2982 RMK A01 T01520080  RH  062%=      5-min Rain = 0
KSW1 201020Z 15010KT 15/08 A2982 RMK A01 T01530080  RH  062%=      5-min Rain = 0
KSW1 201021Z 15009KT 15/08 A2982 RMK A01 T01530080  RH  062%=      5-min Rain = 0
KSW1 201022Z 15009KT 15/08 A2982 RMK A01 T01530080  RH  062%=      5-min Rain = 0
KSW1 201023Z 15010KT 15/08 A2982 RMK A01 T01530080  RH  062%=      5-min Rain = 0
KSW1 201024Z 15009KT 15/08 A2982 RMK A01 T01530080  RH  062%=      5-min Rain = 0
KSW1 201025Z 15009KT 15/08 A2982 RMK A01 T01530080  RH  062%=      5-min Rain = 0
KSW1 201026Z 15009KT 15/08 A2982 RMK A01 T01530080  RH  062%=      5-min Rain = 0
KSW1 201027Z 15010KT 15/08 A2982 RMK A01 T01530080  RH  062%=      5-min Rain = 0
KSW1 201028Z 15009KT 15/08 A2982 RMK A01 T01530080  RH  062%=      5-min Rain = 0
KSW1 201029Z 15009KT 15/08 A2982 RMK A01 T01530080  RH  062%=      5-min Rain = 0
KSW1 201030Z 15009KT 15/08 A2982 RMK A01 T01530081  RH  062%=      5-min Rain = 0
KSW1 201031Z 15008KT 15/08 A2982 RMK A01 T01530081  RH  062%=      5-min Rain = 0
KSW1 201032Z 15008KT 15/08 A2982 RMK A01 T01530081  RH  062%=      5-min Rain = 0
KSW1 201033Z 15008KT 15/08 A2982 RMK A01 T01530081  RH  062%=      5-min Rain = 0
KSW1 201034Z 15010KT 15/08 A2982 RMK A01 T01520081  RH  062%=      5-min Rain = 0
KSW1 201035Z 15008KT 15/08 A2982 RMK A01 T01520081  RH  062%=      5-min Rain = 0
KSW1 201036Z 15009KT 15/08 A2982 RMK A01 T01520081  RH  062%=      5-min Rain = 0
KSW1 201037Z 15009KT 15/08 A2982 RMK A01 T01510081  RH  063%=      5-min Rain = 0
KSW1 201038Z 15009KT 15/08 A2982 RMK A01 T01520081  RH  063%=      5-min Rain = 0
KSW1 201039Z 15010KT 15/08 A2982 RMK A01 T01510081  RH  063%=      5-min Rain = 0
KSW1 201040Z 15009KT 15/08 A2982 RMK A01 T01510081  RH  063%=      5-min Rain = 0
KSW1 201041Z 14008KT 15/08 A2983 RMK A01 T01510081  RH  063%=      5-min Rain = 0
KSW1 201042Z 15009KT 15/08 A2983 RMK A01 T01510081  RH  063%=      5-min Rain = 0
KSW1 201043Z 15010KT 15/08 A2983 RMK A01 T01510081  RH  063%=      5-min Rain = 0
KSW1 201044Z 15011KT 15/08 A2983 RMK A01 T01500081  RH  063%=      5-min Rain = 0
KSW1 201045Z 15010KT 15/08 A2983 RMK A01 T01510081  RH  063%=      5-min Rain = 0
KSW1 201046Z 15010KT 15/08 A2983 RMK A01 T01510081  RH  063%=      5-min Rain = 0
KSW1 201047Z 15009KT 15/08 A2982 RMK A01 T01520081  RH  063%=      5-min Rain = 0
KSW1 201048Z 15010KT 15/08 A2982 RMK A01 T01510081  RH  063%=      5-min Rain = 0
KSW1 201049Z 15010KT 15/08 A2982 RMK A01 T01510081  RH  063%=      5-min Rain = 0
KSW1 201050Z 15010KT 15/08 A2982 RMK A01 T01510081  RH  063%=      5-min Rain = 0
KSW1 201051Z 14010KT 15/08 A2982 RMK A01 T01510081  RH  063%=      5-min Rain = 0
KSW1 201052Z 15011KT 15/08 A2982 RMK A01 T01510081  RH  063%=      5-min Rain = 0
KSW1 201053Z 15010KT 15/08 A2982 RMK A01 T01510082  RH  063%=      5-min Rain = 0
KSW1 201054Z 14010KT 15/08 A2982 RMK A01 T01500082  RH  064%=      5-min Rain = 0
KSW1 201055Z 14010KT 15/08 A2982 RMK A01 T01500082  RH  064%=      5-min Rain = 0
KSW1 201056Z 14010G15KT 15/08 A2982 RMK A01 T01500082  RH  064%=      5-min Rain = 0
KSW1 201057Z 14012KT 15/08 A2982 RMK A01 T01490082  RH  064%=      5-min Rain = 0
KSW1 201058Z 15010KT 15/08 A2982 RMK A01 T01500082  RH  064%=      5-min Rain = 0
KSW1 201059Z 15010KT 15/08 A2982 RMK A01 T01500082  RH  064%=      5-min Rain = 0
KSW1 201100Z 15010KT 15/08 A2982 RMK A01 T01500083  RH  064%=      5-min Rain = 0
KSW1 201101Z 15010KT 15/08 A2982 RMK A01 T01500083  RH  064%=      5-min Rain = 0
KSW1 201102Z 15010KT 15/08 A2982 RMK A01 T01500083  RH  064%=      5-min Rain = 0
KSW1 201103Z 15011KT 15/08 A2982 RMK A01 T01490083  RH  064%=      5-min Rain = 0
KSW1 201104Z 15009KT 15/08 A2982 RMK A01 T01490083  RH  064%=      5-min Rain = 0
KSW1 201105Z 15010KT 15/08 A2982 RMK A01 T01490083  RH  065%=      5-min Rain = 0
KSW1 201106Z 15010KT 15/08 A2982 RMK A01 T01490083  RH  065%=      5-min Rain = 0
KSW1 201107Z 15011KT 15/08 A2982 RMK A01 T01490083  RH  065%=      5-min Rain = 0
KSW1 201108Z 15010KT 15/08 A2982 RMK A01 T01500083  RH  064%=      5-min Rain = 0
KSW1 201109Z 15011KT 15/08 A2982 RMK A01 T01500083  RH  064%=      5-min Rain = 0
KSW1 201110Z 15012KT 15/08 A2982 RMK A01 T01510083  RH  064%=      5-min Rain = 0
KSW1 201111Z 15011KT 15/08 A2982 RMK A01 T01520084  RH  064%=      5-min Rain = 0
KSW1 201112Z 15011KT 15/08 A2982 RMK A01 T01520083  RH  063%=      5-min Rain = 0
KSW1 201113Z 15011KT 15/08 A2982 RMK A01 T01520083  RH  063%=      5-min Rain = 0
KSW1 201114Z 15012KT 15/08 A2982 RMK A01 T01530083  RH  063%=      5-min Rain = 0
KSW1 201115Z 15011KT 15/08 A2982 RMK A01 T01530083  RH  063%=      5-min Rain = 0
KSW1 201116Z 15012KT 15/08 A2982 RMK A01 T01530083  RH  063%=      5-min Rain = 0
KSW1 201117Z 14011KT 15/08 A2982 RMK A01 T01530084  RH  063%=      5-min Rain = 0
KSW1 201118Z 15012KT 15/08 A2982 RMK A01 T01530084  RH  063%=      5-min Rain = 0
KSW1 201119Z 15012KT 15/08 A2982 RMK A01 T01530083  RH  063%=      5-min Rain = 0
KSW1 201120Z 15013KT 15/08 A2982 RMK A01 T01540084  RH  063%=      5-min Rain = 0
KSW1 201121Z 15011KT 16/08 A2982 RMK A01 T01550084  RH  062%=      5-min Rain = 0
KSW1 201122Z 15012KT 16/08 A2982 RMK A01 T01560084  RH  062%=      5-min Rain = 0
KSW1 201123Z 15011KT 16/08 A2982 RMK A01 T01560084  RH  062%=      5-min Rain = 0
KSW1 201124Z 15011KT 16/08 A2982 RMK A01 T01560084  RH  062%=      5-min Rain = 0
KSW1 201125Z 15012KT 16/08 A2982 RMK A01 T01560084  RH  062%=      5-min Rain = 0
KSW1 201126Z 15012KT 16/08 A2982 RMK A01 T01570084  RH  062%=      5-min Rain = 0
KSW1 201127Z 15013KT 16/09 A2982 RMK A01 T01570085  RH  062%=      5-min Rain = 0
KSW1 201128Z 15013KT 16/09 A2982 RMK A01 T01570085  RH  062%=      5-min Rain = 0
KSW1 201129Z 15012KT 16/09 A2982 RMK A01 T01580085  RH  062%=      5-min Rain = 0
KSW1 201130Z 15011KT 16/09 A2982 RMK A01 T01580085  RH  062%=      5-min Rain = 0
KSW1 201131Z 15013KT 16/09 A2982 RMK A01 T01570085  RH  062%=      5-min Rain = 0
KSW1 201132Z 15012KT 16/09 A2982 RMK A01 T01580085  RH  062%=      5-min Rain = 0
KSW1 201133Z 15012KT 16/09 A2982 RMK A01 T01580085  RH  062%=      5-min Rain = 0
KSW1 201134Z 15012KT 16/09 A2982 RMK A01 T01580085  RH  062%=      5-min Rain = 0
KSW1 201135Z 15011KT 16/09 A2982 RMK A01 T01580085  RH  062%=      5-min Rain = 0
KSW1 201136Z 15013KT 16/09 A2982 RMK A01 T01580086  RH  062%=      5-min Rain = 0
KSW1 201137Z 15013KT 16/09 A2982 RMK A01 T01580085  RH  062%=      5-min Rain = 0
KSW1 201138Z 15013KT 16/09 A2982 RMK A01 T01580085  RH  062%=      5-min Rain = 0
KSW1 201139Z 15012KT 16/09 A2982 RMK A01 T01580086  RH  062%=      5-min Rain = 0
KSW1 201140Z 15010KT 16/09 A2982 RMK A01 T01580085  RH  062%=      5-min Rain = 0
KSW1 201141Z 15010KT 16/09 A2982 RMK A01 T01570086  RH  062%=      5-min Rain = 0
KSW1 201142Z 15013KT 16/09 A2983 RMK A01 T01570086  RH  063%=      5-min Rain = 0
KSW1 201143Z 15012KT 16/09 A2983 RMK A01 T01570086  RH  063%=      5-min Rain = 0
KSW1 201144Z 15013KT 16/09 A2983 RMK A01 T01580086  RH  062%=      5-min Rain = 0
KSW1 201145Z 15012KT 16/09 A2983 RMK A01 T01580086  RH  062%=      5-min Rain = 0
KSW1 201146Z 15011KT 16/09 A2983 RMK A01 T01590086  RH  062%=      5-min Rain = 0
KSW1 201147Z 15012KT 16/09 A2983 RMK A01 T01580087  RH  062%=      5-min Rain = 0
KSW1 201148Z 15013KT 16/09 A2983 RMK A01 T01580086  RH  062%=      5-min Rain = 0
KSW1 201149Z 15012KT 16/09 A2983 RMK A01 T01580086  RH  062%=      5-min Rain = 0
KSW1 201150Z 15013KT 16/09 A2983 RMK A01 T01580086  RH  062%=      5-min Rain = 0
KSW1 201151Z 15011G16KT 16/09 A2983 RMK A01 T01580087  RH  062%=      5-min Rain = 0
KSW1 201152Z 15013KT 16/09 A2983 RMK A01 T01580087  RH  063%=      5-min Rain = 0
KSW1 201153Z 15013KT 16/09 A2983 RMK A01 T01570087  RH  063%=      5-min Rain = 0
KSW1 201154Z 15013KT 16/09 A2983 RMK A01 T01570087  RH  063%=      5-min Rain = 0
KSW1 201155Z 15013KT 16/09 A2983 RMK A01 T01570087  RH  063%=      5-min Rain = 0
KSW1 201156Z 15013KT 16/09 A2983 RMK A01 T01570087  RH  063%=      5-min Rain = 0
KSW1 201157Z 15011KT 16/09 A2983 RMK A01 T01570087  RH  063%=      5-min Rain = 0
KSW1 201158Z 15012KT 16/09 A2983 RMK A01 T01570087  RH  063%=      5-min Rain = 0
KSW1 201159Z 15011KT 16/09 A2983 RMK A01 T01560087  RH  064%=      5-min Rain = 0
KSW1 201200Z 15012KT 16/09 A2983 RMK A01 T01560087  RH  064%=      5-min Rain = 0
KSW1 201201Z 15012KT 16/09 A2983 RMK A01 T01550087  RH  064%=      5-min Rain = 0
KSW1 201202Z 15012KT 16/09 A2983 RMK A01 T01550087  RH  064%=      5-min Rain = 0
KSW1 201203Z 15012KT 16/09 A2983 RMK A01 T01550087  RH  064%=      5-min Rain = 0
KSW1 201204Z 15012KT 16/09 A2983 RMK A01 T01550087  RH  064%=      5-min Rain = 0
KSW1 201205Z 15013KT 16/09 A2983 RMK A01 T01550087  RH  064%=      5-min Rain = 0
KSW1 201206Z 15013KT 16/09 A2983 RMK A01 T01550087  RH  064%=      5-min Rain = 0
KSW1 201207Z 15014KT 16/09 A2983 RMK A01 T01550087  RH  064%=      5-min Rain = 0
KSW1 201208Z 15015KT 16/09 A2982 RMK A01 T01550088  RH  064%=      5-min Rain = 0
KSW1 201209Z 15015KT 16/09 A2982 RMK A01 T01550087  RH  064%=      5-min Rain = 0
KSW1 201210Z 15015KT 16/09 A2982 RMK A01 T01560087  RH  064%=      5-min Rain = 0
KSW1 201211Z 15014KT 16/09 A2982 RMK A01 T01560088  RH  064%=      5-min Rain = 0
KSW1 201212Z 15015KT 16/09 A2982 RMK A01 T01560088  RH  064%=      5-min Rain = 0
KSW1 201213Z 15014KT 16/09 A2982 RMK A01 T01560088  RH  064%=      5-min Rain = 0
KSW1 201214Z 15014G19KT 16/09 A2982 RMK A01 T01560088  RH  064%=      5-min Rain = 0
KSW1 201215Z 15014KT 16/09 A2982 RMK A01 T01560088  RH  064%=      5-min Rain = 0
KSW1 201216Z 15014KT 16/09 A2983 RMK A01 T01560088  RH  064%=      5-min Rain = 0
KSW1 201217Z 15014KT 16/09 A2983 RMK A01 T01560088  RH  064%=      5-min Rain = 0
KSW1 201218Z 15013KT 16/09 A2983 RMK A01 T01560088  RH  064%=      5-min Rain = 0
KSW1 201219Z 15014KT 16/09 A2983 RMK A01 T01550088  RH  064%=      5-min Rain = 0
KSW1 201220Z 15012KT 16/09 A2983 RMK A01 T01550088  RH  064%=      5-min Rain = 0
KSW1 201221Z 15012KT 16/09 A2983 RMK A01 T01550088  RH  064%=      5-min Rain = 0
KSW1 201222Z 15012KT 16/09 A2983 RMK A01 T01550088  RH  064%=      5-min Rain = 0
KSW1 201223Z 15011KT 16/09 A2983 RMK A01 T01550088  RH  064%=      5-min Rain = 0
KSW1 201224Z 15011KT 15/09 A2983 RMK A01 T01540088  RH  064%=      5-min Rain = 0
KSW1 201225Z 15012G17KT 16/09 A2983 RMK A01 T01550088  RH  065%=      5-min Rain = 0
KSW1 201226Z 15013KT 16/09 A2983 RMK A01 T01550088  RH  064%=      5-min Rain = 0
KSW1 201227Z 16011KT 16/09 A2983 RMK A01 T01550088  RH  064%=      5-min Rain = 0
KSW1 201228Z 15011KT 16/09 A2983 RMK A01 T01550088  RH  064%=      5-min Rain = 0
KSW1 201229Z 16012KT 16/09 A2983 RMK A01 T01550088  RH  064%=      5-min Rain = 0
KSW1 201230Z 15011KT 15/09 A2983 RMK A01 T01540088  RH  065%=      5-min Rain = 0
KSW1 201231Z 15013KT 15/09 A2983 RMK A01 T01540088  RH  065%=      5-min Rain = 0
KSW1 201232Z 16011KT 15/09 A2983 RMK A01 T01530088  RH  065%=      5-min Rain = 0
KSW1 201233Z 15012KT 15/09 A2983 RMK A01 T01540088  RH  065%=      5-min Rain = 0
KSW1 201234Z 15010KT 15/09 A2983 RMK A01 T01530088  RH  065%=      5-min Rain = 0
KSW1 201235Z 15010KT 15/09 A2983 RMK A01 T01530088  RH  065%=      5-min Rain = 0
KSW1 201236Z 15011KT 15/09 A2983 RMK A01 T01520089  RH  066%=      5-min Rain = 0
KSW1 201237Z 15012KT 15/09 A2983 RMK A01 T01520089  RH  066%=      5-min Rain = 0
KSW1 201238Z 15011KT 15/09 A2983 RMK A01 T01520089  RH  066%=      5-min Rain = 0
KSW1 201239Z 15012KT 15/09 A2983 RMK A01 T01520088  RH  066%=      5-min Rain = 0
KSW1 201240Z 15011KT 15/09 A2983 RMK A01 T01520089  RH  066%=      5-min Rain = 0
KSW1 201241Z 15011KT 15/09 A2983 RMK A01 T01510089  RH  066%=      5-min Rain = 0
KSW1 201242Z 15011KT 15/09 A2983 RMK A01 T01510089  RH  066%=      5-min Rain = 0
KSW1 201243Z 15012KT 15/09 A2983 RMK A01 T01510089  RH  066%=      5-min Rain = 0
KSW1 201244Z 15011KT 15/09 A2983 RMK A01 T01510089  RH  066%=      5-min Rain = 0
KSW1 201245Z 15011KT 15/09 A2983 RMK A01 T01510089  RH  066%=      5-min Rain = 0
KSW1 201246Z 15011KT 15/09 A2983 RMK A01 T01510090  RH  067%=      5-min Rain = 0
KSW1 201247Z 15011KT 15/09 A2983 RMK A01 T01510090  RH  067%=      5-min Rain = 0
KSW1 201248Z 15011KT 15/09 A2983 RMK A01 T01510090  RH  067%=      5-min Rain = 0
KSW1 201249Z 15012KT 15/09 A2983 RMK A01 T01510090  RH  067%=      5-min Rain = 0
KSW1 201250Z 15012KT 15/09 A2983 RMK A01 T01510090  RH  067%=      5-min Rain = 0
KSW1 201251Z 15012KT 15/09 A2983 RMK A01 T01510090  RH  067%=      5-min Rain = 0
KSW1 201252Z 15010KT 15/09 A2983 RMK A01 T01520091  RH  067%=      5-min Rain = 0
KSW1 201253Z 15012KT 15/09 A2982 RMK A01 T01510091  RH  067%=      5-min Rain = 0
KSW1 201254Z 15011KT 15/09 A2982 RMK A01 T01510091  RH  067%=      5-min Rain = 0
KSW1 201255Z 15012KT 15/09 A2982 RMK A01 T01520091  RH  067%=      5-min Rain = 0
KSW1 201256Z 15012KT 15/09 A2982 RMK A01 T01520092  RH  067%=      5-min Rain = 0
KSW1 201257Z 15011KT 15/09 A2982 RMK A01 T01530092  RH  067%=      5-min Rain = 0
KSW1 201258Z 15011KT 15/09 A2982 RMK A01 T01530092  RH  067%=      5-min Rain = 0
KSW1 201259Z 15012KT 15/09 A2982 RMK A01 T01530092  RH  067%=      5-min Rain = 0
KSW1 201300Z 15012KT 15/09 A2982 RMK A01 T01530092  RH  067%=      5-min Rain = 0
KSW1 201301Z 16012KT 15/09 A2982 RMK A01 T01540092  RH  067%=      5-min Rain = 0
KSW1 201302Z 15010KT 15/09 A2982 RMK A01 T01540092  RH  066%=      5-min Rain = 0
KSW1 201303Z 15009KT 15/09 A2983 RMK A01 T01540092  RH  067%=      5-min Rain = 0
KSW1 201304Z 15010KT 15/09 A2983 RMK A01 T01530092  RH  067%=      5-min Rain = 0
KSW1 201305Z 15011KT 15/09 A2983 RMK A01 T01530092  RH  067%=      5-min Rain = 0
KSW1 201306Z 16011KT 15/09 A2983 RMK A01 T01530092  RH  067%=      5-min Rain = 0
KSW1 201307Z 15011KT 15/09 A2983 RMK A01 T01530092  RH  067%=      5-min Rain = 0
KSW1 201308Z 15010KT 15/09 A2983 RMK A01 T01530092  RH  067%=      5-min Rain = 0
KSW1 201309Z 15010KT 15/09 A2982 RMK A01 T01530092  RH  067%=      5-min Rain = 0
KSW1 201310Z 15011KT 15/09 A2982 RMK A01 T01540092  RH  067%=      5-min Rain = 0
KSW1 201311Z 15011KT 15/09 A2982 RMK A01 T01540093  RH  067%=      5-min Rain = 0
KSW1 201312Z 15010KT 15/09 A2982 RMK A01 T01540093  RH  067%=      5-min Rain = 0
KSW1 201313Z 15010KT 15/09 A2982 RMK A01 T01540093  RH  067%=      5-min Rain = 0
KSW1 201314Z 15012KT 15/09 A2982 RMK A01 T01540093  RH  067%=      5-min Rain = 0
KSW1 201315Z 15011KT 16/09 A2982 RMK A01 T01550093  RH  067%=      5-min Rain = 0
KSW1 201316Z 15010KT 16/09 A2982 RMK A01 T01560093  RH  066%=      5-min Rain = 0
KSW1 201317Z 15011KT 16/09 A2982 RMK A01 T01560093  RH  066%=      5-min Rain = 0
KSW1 201318Z 15011KT 16/09 A2982 RMK A01 T01560094  RH  066%=      5-min Rain = 0
KSW1 201319Z 15013KT 16/09 A2982 RMK A01 T01570094  RH  066%=      5-min Rain = 0
KSW1 201320Z 15012KT 16/09 A2982 RMK A01 T01580094  RH  066%=      5-min Rain = 0
KSW1 201321Z 15011KT 16/09 A2982 RMK A01 T01590094  RH  066%=      5-min Rain = 0
KSW1 201322Z 15011KT 16/09 A2982 RMK A01 T01590094  RH  065%=      5-min Rain = 0
KSW1 201323Z 15012KT 16/09 A2982 RMK A01 T01600094  RH  065%=      5-min Rain = 0
KSW1 201324Z 15013KT 16/10 A2982 RMK A01 T01600095  RH  065%=      5-min Rain = 0
KSW1 201325Z 15012KT 16/09 A2982 RMK A01 T01610094  RH  065%=      5-min Rain = 0
KSW1 201326Z 15013KT 16/10 A2982 RMK A01 T01620095  RH  064%=      5-min Rain = 0
KSW1 201327Z 15012KT 16/10 A2982 RMK A01 T01630095  RH  064%=      5-min Rain = 0
KSW1 201328Z 15012KT 16/10 A2982 RMK A01 T01630095  RH  064%=      5-min Rain = 0
KSW1 201329Z 15011KT 16/10 A2982 RMK A01 T01630095  RH  064%=      5-min Rain = 0
KSW1 201330Z 15011KT 16/10 A2982 RMK A01 T01630095  RH  064%=      5-min Rain = 0
KSW1 201331Z 15011KT 16/10 A2982 RMK A01 T01640095  RH  064%=      5-min Rain = 0
KSW1 201332Z 15012KT 16/10 A2982 RMK A01 T01640095  RH  063%=      5-min Rain = 0
KSW1 201333Z 15010KT 17/10 A2982 RMK A01 T01650095  RH  063%=      5-min Rain = 0
KSW1 201334Z 15010KT 17/10 A2982 RMK A01 T01660096  RH  063%=      5-min Rain = 0
KSW1 201335Z 15012KT 17/10 A2982 RMK A01 T01660095  RH  063%=      5-min Rain = 0
KSW1 201336Z 15012G17KT 17/10 A2982 RMK A01 T01670096  RH  063%=      5-min Rain = 0
KSW1 201337Z 15010KT 17/10 A2982 RMK A01 T01670096  RH  063%=      5-min Rain = 0
KSW1 201338Z 15012KT 17/10 A2982 RMK A01 T01680096  RH  062%=      5-min Rain = 0
KSW1 201339Z 15010KT 17/10 A2982 RMK A01 T01690096  RH  062%=      5-min Rain = 0
KSW1 201340Z 15011KT 17/10 A2982 RMK A01 T01700096  RH  062%=      5-min Rain = 0
KSW1 201341Z 15012KT 17/10 A2982 RMK A01 T01700096  RH  062%=      5-min Rain = 0
KSW1 201342Z 15011KT 17/10 A2982 RMK A01 T01710096  RH  061%=      5-min Rain = 0
KSW1 201343Z 15012KT 17/10 A2982 RMK A01 T01710096  RH  061%=      5-min Rain = 0
KSW1 201344Z 15011KT 17/10 A2982 RMK A01 T01720096  RH  061%=      5-min Rain = 0
KSW1 201345Z 15011KT 17/10 A2982 RMK A01 T01720096  RH  061%=      5-min Rain = 0
KSW1 201346Z 15010KT 17/10 A2982 RMK A01 T01720096  RH  061%=      5-min Rain = 0
KSW1 201347Z 15011KT 17/10 A2982 RMK A01 T01730097  RH  061%=      5-min Rain = 0
KSW1 201348Z 15011KT 17/10 A2982 RMK A01 T01730096  RH  061%=      5-min Rain = 0
KSW1 201349Z 15012KT 17/10 A2982 RMK A01 T01730096  RH  060%=      5-min Rain = 0
KSW1 201350Z 15013KT 17/10 A2982 RMK A01 T01740096  RH  060%=      5-min Rain = 0
KSW1 201351Z 16010KT 17/10 A2982 RMK A01 T01740096  RH  060%=      5-min Rain = 0
KSW1 201352Z 15012KT 17/10 A2982 RMK A01 T01740096  RH  060%=      5-min Rain = 0
KSW1 201353Z 15013KT 17/10 A2983 RMK A01 T01740096  RH  060%=      5-min Rain = 0
KSW1 201354Z 15013KT 18/10 A2983 RMK A01 T01750096  RH  060%=      5-min Rain = 0
KSW1 201355Z 15013KT 18/10 A2983 RMK A01 T01750096  RH  060%=      5-min Rain = 0
KSW1 201356Z 15011KT 18/10 A2982 RMK A01 T01750096  RH  060%=      5-min Rain = 0
KSW1 201357Z 15011KT 18/10 A2982 RMK A01 T01760096  RH  060%=      5-min Rain = 0
KSW1 201358Z 15014KT 18/10 A2982 RMK A01 T01760096  RH  060%=      5-min Rain = 0
KSW1 201359Z 15015KT 18/10 A2982 RMK A01 T01760095  RH  059%=      5-min Rain = 0
KSW1 201400Z 15013KT 18/10 A2982 RMK A01 T01770096  RH  059%=      5-min Rain = 0
KSW1 201401Z 15011KT 18/10 A2982 RMK A01 T01770097  RH  059%=      5-min Rain = 0
KSW1 201402Z 15015KT 18/10 A2982 RMK A01 T01770096  RH  059%=      5-min Rain = 0
KSW1 201403Z 15015KT 18/10 A2982 RMK A01 T01770095  RH  059%=      5-min Rain = 0
KSW1 201404Z 15016KT 18/10 A2983 RMK A01 T01780095  RH  058%=      5-min Rain = 0
KSW1 201405Z 15016KT 18/10 A2983 RMK A01 T01780095  RH  058%=      5-min Rain = 0
KSW1 201406Z 15014KT 18/10 A2983 RMK A01 T01780095  RH  058%=      5-min Rain = 0
KSW1 201407Z 15015KT 18/10 A2983 RMK A01 T01780095  RH  058%=      5-min Rain = 0
KSW1 201408Z 16013KT 18/10 A2983 RMK A01 T01790096  RH  058%=      5-min Rain = 0
KSW1 201409Z 16013KT 18/10 A2983 RMK A01 T01790096  RH  058%=      5-min Rain = 0
KSW1 201410Z 15015KT 18/10 A2983 RMK A01 T01800096  RH  058%=      5-min Rain = 0
KSW1 201411Z 16014G19KT 18/10 A2983 RMK A01 T01800095  RH  058%=      5-min Rain = 0
KSW1 201412Z 15014KT 18/10 A2983 RMK A01 T01810095  RH  057%=      5-min Rain = 0
KSW1 201413Z 16013KT 18/10 A2983 RMK A01 T01810096  RH  058%=      5-min Rain = 0
KSW1 201414Z 15015KT 18/10 A2983 RMK A01 T01810096  RH  057%=      5-min Rain = 0
KSW1 201415Z 16016KT 18/09 A2983 RMK A01 T01820094  RH  057%=      5-min Rain = 0
KSW1 201416Z 16015KT 18/10 A2983 RMK A01 T01820095  RH  057%=      5-min Rain = 0
KSW1 201417Z 16013KT 18/10 A2983 RMK A01 T01820095  RH  057%=      5-min Rain = 0
KSW1 201418Z 16014G19KT 18/10 A2983 RMK A01 T01830095  RH  056%=      5-min Rain = 0
KSW1 201419Z 15016KT 18/10 A2983 RMK A01 T01840095  RH  056%=      5-min Rain = 0
KSW1 201420Z 16016KT 18/10 A2983 RMK A01 T01840095  RH  056%=      5-min Rain = 0
KSW1 201421Z 16014KT 19/10 A2983 RMK A01 T01850095  RH  056%=      5-min Rain = 0
KSW1 201422Z 16017G22KT 19/10 A2983 RMK A01 T01850095  RH  056%=      5-min Rain = 0
KSW1 201423Z 15016G22KT 19/10 A2983 RMK A01 T01860095  RH  056%=      5-min Rain = 0
KSW1 201424Z 16015G20KT 19/10 A2983 RMK A01 T01860095  RH  055%=      5-min Rain = 0
KSW1 201425Z 15015KT 19/10 A2983 RMK A01 T01860095  RH  055%=      5-min Rain = 0
KSW1 201426Z 16017G22KT 19/10 A2983 RMK A01 T01870095  RH  055%=      5-min Rain = 0
KSW1 201427Z 16016G21KT 19/10 A2983 RMK A01 T01870095  RH  055%=      5-min Rain = 0
KSW1 201428Z 16012KT 19/10 A2983 RMK A01 T01870096  RH  055%=      5-min Rain = 0
KSW1 201429Z 16018KT 19/10 A2983 RMK A01 T01880095  RH  055%=      5-min Rain = 0
KSW1 201430Z 16016KT 19/09 A2983 RMK A01 T01880094  RH  055%=      5-min Rain = 0
KSW1 201431Z 16017KT 19/10 A2983 RMK A01 T01880095  RH  055%=      5-min Rain = 0
KSW1 201432Z 16017KT 19/09 A2983 RMK A01 T01880094  RH  054%=      5-min Rain = 0
KSW1 201433Z 15016KT 19/10 A2983 RMK A01 T01890095  RH  054%=      5-min Rain = 0
KSW1 201434Z 16018KT 19/09 A2983 RMK A01 T01890094  RH  054%=      5-min Rain = 0
KSW1 201435Z 15016KT 19/10 A2983 RMK A01 T01900095  RH  054%=      5-min Rain = 0
KSW1 201436Z 16019KT 19/10 A2983 RMK A01 T01900095  RH  054%=      5-min Rain = 0
KSW1 201437Z 15015G21KT 19/10 A2983 RMK A01 T01900095  RH  054%=      5-min Rain = 0
KSW1 201438Z 15018KT 19/10 A2983 RMK A01 T01910095  RH  054%=      5-min Rain = 0
KSW1 201439Z 16014KT 19/10 A2983 RMK A01 T01910096  RH  054%=      5-min Rain = 0
KSW1 201440Z 15013KT 19/10 A2983 RMK A01 T01920097  RH  054%=      5-min Rain = 0
KSW1 201441Z 16014KT 19/10 A2983 RMK A01 T01940098  RH  054%=      5-min Rain = 0
KSW1 201442Z 16013KT 20/10 A2983 RMK A01 T01950097  RH  053%=      5-min Rain = 0
KSW1 201443Z 16017KT 20/10 A2983 RMK A01 T01950097  RH  053%=      5-min Rain = 0
KSW1 201444Z 16015KT 20/10 A2983 RMK A01 T01950097  RH  053%=      5-min Rain = 0
KSW1 201445Z 16019KT 20/10 A2983 RMK A01 T01960097  RH  053%=      5-min Rain = 0
KSW1 201446Z 16018KT 20/10 A2983 RMK A01 T01960096  RH  052%=      5-min Rain = 0
KSW1 201447Z 16016KT 20/10 A2983 RMK A01 T01970098  RH  053%=      5-min Rain = 0
KSW1 201448Z 16017KT 20/10 A2983 RMK A01 T01970097  RH  052%=      5-min Rain = 0
KSW1 201449Z 15018KT 20/10 A2983 RMK A01 T01970097  RH  052%=      5-min Rain = 0
KSW1 201450Z 15016G21KT 20/10 A2983 RMK A01 T01980098  RH  052%=      5-min Rain = 0
KSW1 201451Z 16014KT 20/10 A2983 RMK A01 T01980099  RH  053%=      5-min Rain = 0
KSW1 201452Z 16015KT 20/10 A2983 RMK A01 T01990098  RH  052%=      5-min Rain = 0
KSW1 201453Z 16015KT 20/10 A2983 RMK A01 T02000098  RH  052%=      5-min Rain = 0
KSW1 201454Z 16014G19KT 20/10 A2983 RMK A01 T02000100  RH  052%=      5-min Rain = 0
KSW1 201455Z 15019KT 20/10 A2983 RMK A01 T02010099  RH  052%=      5-min Rain = 0
KSW1 201456Z 16018KT 20/10 A2983 RMK A01 T02010098  RH  052%=      5-min Rain = 0
KSW1 201457Z 16014KT 20/10 A2983 RMK A01 T02010100  RH  052%=      5-min Rain = 0
KSW1 201458Z 16014KT 20/10 A2983 RMK A01 T02010100  RH  052%=      5-min Rain = 0
KSW1 201459Z 16014KT 20/10 A2983 RMK A01 T02030100  RH  052%=      5-min Rain = 0
KSW1 201500Z 16016KT 20/10 A2983 RMK A01 T02030100  RH  051%=      5-min Rain = 0
KSW1 201501Z 15016KT 20/10 A2983 RMK A01 T02030100  RH  052%=      5-min Rain = 0
KSW1 201502Z 16017G25KT 20/10 A2983 RMK A01 T02040101  RH  052%=      5-min Rain = 0
KSW1 201503Z 16018KT 20/10 A2983 RMK A01 T02040100  RH  051%=      5-min Rain = 0
KSW1 201504Z 16019KT 20/10 A2983 RMK A01 T02030100  RH  052%=      5-min Rain = 0
KSW1 201505Z 16016KT 20/10 A2983 RMK A01 T02030100  RH  052%=      5-min Rain = 0
KSW1 201506Z 16017KT 20/10 A2983 RMK A01 T02030100  RH  052%=      5-min Rain = 0
KSW1 201507Z 16014G19KT 20/10 A2983 RMK A01 T02020101  RH  052%=      5-min Rain = 0
KSW1 201508Z 16017KT 20/10 A2983 RMK A01 T02040102  RH  052%=      5-min Rain = 0
KSW1 201509Z 16015KT 20/10 A2983 RMK A01 T02040102  RH  052%=      5-min Rain = 0
KSW1 201510Z 17015KT 21/10 A2983 RMK A01 T02050102  RH  052%=      5-min Rain = 0
KSW1 201511Z 16014G19KT 21/10 A2983 RMK A01 T02060103  RH  052%=      5-min Rain = 0
KSW1 201512Z 16016KT 21/10 A2983 RMK A01 T02060103  RH  052%=      5-min Rain = 0
KSW1 201513Z 16015KT 21/10 A2983 RMK A01 T02060104  RH  052%=      5-min Rain = 0
KSW1 201514Z 17017KT 21/10 A2983 RMK A01 T02060103  RH  052%=      5-min Rain = 0
KSW1 201515Z 17017KT 21/10 A2983 RMK A01 T02060104  RH  052%=      5-min Rain = 0
KSW1 201516Z 16018KT 21/10 A2983 RMK A01 T02060104  RH  052%=      5-min Rain = 0
KSW1 201517Z 16017G22KT 21/10 A2983 RMK A01 T02070104  RH  052%=      5-min Rain = 0
KSW1 201518Z 16018KT 21/11 A2983 RMK A01 T02070105  RH  052%=      5-min Rain = 0
KSW1 201519Z 16014G19KT 21/11 A2983 RMK A01 T02070106  RH  052%=      5-min Rain = 0
KSW1 201520Z 17016G22KT 21/11 A2983 RMK A01 T02080106  RH  052%=      5-min Rain = 0
KSW1 201521Z 16017KT 21/11 A2983 RMK A01 T02090106  RH  052%=      5-min Rain = 0
KSW1 201522Z 17016KT 21/11 A2983 RMK A01 T02090107  RH  052%=      5-min Rain = 0
KSW1 201523Z 17016KT 21/11 A2983 RMK A01 T02100107  RH  052%=      5-min Rain = 0
KSW1 201524Z 17016KT 21/11 A2983 RMK A01 T02100107  RH  052%=      5-min Rain = 0
KSW1 201525Z 16012G17KT 21/11 A2983 RMK A01 T02110107  RH  052%=      5-min Rain = 0
KSW1 201526Z 16016KT 21/11 A2983 RMK A01 T02110107  RH  051%=      5-min Rain = 0
KSW1 201527Z 16014KT 21/11 A2983 RMK A01 T02120107  RH  051%=      5-min Rain = 0
KSW1 201528Z 16017KT 21/11 A2983 RMK A01 T02120107  RH  051%=      5-min Rain = 0
KSW1 201529Z 15014KT 21/11 A2983 RMK A01 T02120107  RH  051%=      5-min Rain = 0
KSW1 201530Z 16015KT 21/11 A2983 RMK A01 T02130108  RH  051%=      5-min Rain = 0
KSW1 201531Z 16014KT 21/11 A2983 RMK A01 T02140108  RH  051%=      5-min Rain = 0
KSW1 201532Z 16014G19KT 21/11 A2983 RMK A01 T02140108  RH  051%=      5-min Rain = 0
KSW1 201533Z 17015KT 22/11 A2983 RMK A01 T02150108  RH  050%=      5-min Rain = 0
KSW1 201534Z 17013KT 22/11 A2983 RMK A01 T02160108  RH  050%=      5-min Rain = 0
KSW1 201535Z 17014KT 22/11 A2983 RMK A01 T02160108  RH  050%=      5-min Rain = 0
KSW1 201536Z 17016KT 22/11 A2983 RMK A01 T02160108  RH  050%=      5-min Rain = 0
KSW1 201537Z 17015KT 22/11 A2983 RMK A01 T02160108  RH  050%=      5-min Rain = 0
KSW1 201538Z 16014KT 22/11 A2983 RMK A01 T02160108  RH  050%=      5-min Rain = 0
KSW1 201539Z 15014KT 22/11 A2983 RMK A01 T02170108  RH  050%=      5-min Rain = 0
KSW1 201540Z 16014KT 22/11 A2983 RMK A01 T02170109  RH  050%=      5-min Rain = 0
KSW1 201541Z 16014KT 22/11 A2983 RMK A01 T02180109  RH  050%=      5-min Rain = 0
KSW1 201542Z 16015KT 22/11 A2983 RMK A01 T02200110  RH  050%=      5-min Rain = 0
KSW1 201543Z 17015KT 22/11 A2983 RMK A01 T02210109  RH  049%=      5-min Rain = 0
KSW1 201544Z 17014KT 22/11 A2983 RMK A01 T02220111  RH  049%=      5-min Rain = 0
KSW1 201545Z 17013KT 22/11 A2983 RMK A01 T02240111  RH  049%=      5-min Rain = 0
KSW1 201546Z 16014KT 23/11 A2983 RMK A01 T02250110  RH  048%=      5-min Rain = 0
KSW1 201547Z 16014KT 23/11 A2983 RMK A01 T02250111  RH  048%=      5-min Rain = 0
KSW1 201548Z 16015KT 23/11 A2983 RMK A01 T02260110  RH  048%=      5-min Rain = 0
KSW1 201549Z 18014KT 23/11 A2983 RMK A01 T02260110  RH  048%=      5-min Rain = 0
KSW1 201550Z 17013KT 23/11 A2983 RMK A01 T02270112  RH  048%=      5-min Rain = 0
KSW1 201551Z 17014KT 23/11 A2983 RMK A01 T02280111  RH  048%=      5-min Rain = 0
KSW1 201552Z 18015KT 23/11 A2983 RMK A01 T02280110  RH  047%=      5-min Rain = 0
KSW1 201553Z 17015KT 23/11 A2983 RMK A01 T02280109  RH  047%=      5-min Rain = 0
KSW1 201554Z 16014KT 23/11 A2983 RMK A01 T02280110  RH  047%=      5-min Rain = 0
KSW1 201555Z 16013KT 23/11 A2983 RMK A01 T02290111  RH  047%=      5-min Rain = 0
KSW1 201556Z 16013KT 23/11 A2983 RMK A01 T02300110  RH  046%=      5-min Rain = 0
KSW1 201557Z 16012KT 23/11 A2982 RMK A01 T02310110  RH  047%=      5-min Rain = 0
KSW1 201558Z 18013KT 23/11 A2982 RMK A01 T02320110  RH  046%=      5-min Rain = 0
KSW1 201559Z 18012KT 23/11 A2982 RMK A01 T02320108  RH  045%=      5-min Rain = 0
KSW1 201600Z 18013KT 23/11 A2982 RMK A01 T02330110  RH  046%=      5-min Rain = 0
KSW1 201601Z 17013KT 23/11 A2982 RMK A01 T02340112  RH  046%=      5-min Rain = 0
KSW1 201602Z 16016KT 24/11 A2982 RMK A01 T02350110  RH  045%=      5-min Rain = 0
KSW1 201603Z 17018KT 24/11 A2982 RMK A01 T02370106  RH  044%=      5-min Rain = 0
KSW1 201604Z 17015KT 24/11 A2982 RMK A01 T02370106  RH  044%=      5-min Rain = 0
KSW1 201605Z 18012KT 24/11 A2982 RMK A01 T02360108  RH  044%=      5-min Rain = 0
KSW1 201606Z 18011G16KT 24/11 A2982 RMK A01 T02370111  RH  045%=      5-min Rain = 0
KSW1 201607Z 18013KT 24/11 A2982 RMK A01 T02400108  RH  043%=      5-min Rain = 0
KSW1 201608Z 17012G17KT 24/11 A2982 RMK A01 T02400108  RH  043%=      5-min Rain = 0
KSW1 201609Z 17015KT 24/11 A2982 RMK A01 T02410109  RH  043%=      5-min Rain = 0
KSW1 201610Z 17014KT 24/11 A2982 RMK A01 T02390107  RH  043%=      5-min Rain = 0
KSW1 201611Z 17016KT 24/11 A2982 RMK A01 T02380107  RH  044%=      5-min Rain = 0
KSW1 201612Z 18014KT 24/11 A2982 RMK A01 T02380109  RH  044%=      5-min Rain = 0
KSW1 201613Z 18014G19KT 24/11 A2982 RMK A01 T02380108  RH  044%=      5-min Rain = 0
KSW1 201614Z 16013G18KT 24/11 A2982 RMK A01 T02380109  RH  044%=      5-min Rain = 0
KSW1 201615Z 17015KT 24/11 A2982 RMK A01 T02400107  RH  043%=      5-min Rain = 0
KSW1 201616Z 17012KT 24/11 A2982 RMK A01 T02400108  RH  043%=      5-min Rain = 0
KSW1 201617Z 17015KT 24/11 A2982 RMK A01 T02400108  RH  043%=      5-min Rain = 0
KSW1 201618Z 18013KT 24/11 A2982 RMK A01 T02400107  RH  043%=      5-min Rain = 0
KSW1 201619Z 17013KT 24/11 A2982 RMK A01 T02400106  RH  043%=      5-min Rain = 0
KSW1 201620Z 17014KT 24/11 A2982 RMK A01 T02400107  RH  043%=      5-min Rain = 0
KSW1 201621Z 18012KT 24/11 A2982 RMK A01 T02410108  RH  043%=      5-min Rain = 0
KSW1 201622Z 18012KT 24/11 A2981 RMK A01 T02430108  RH  043%=      5-min Rain = 0
KSW1 201623Z 17012KT 25/11 A2982 RMK A01 T02450110  RH  043%=      5-min Rain = 0
KSW1 201624Z 17013KT 25/11 A2982 RMK A01 T02470108  RH  042%=      5-min Rain = 0
KSW1 201625Z 17013KT 25/11 A2981 RMK A01 T02460107  RH  041%=      5-min Rain = 0
KSW1 201626Z 17016KT 25/11 A2981 RMK A01 T02450105  RH  041%=      5-min Rain = 0
KSW1 201627Z 18015KT 24/10 A2981 RMK A01 T02440104  RH  041%=      5-min Rain = 0
KSW1 201628Z 18011KT 25/11 A2981 RMK A01 T02450107  RH  042%=      5-min Rain = 0
KSW1 201629Z 18012KT 25/11 A2981 RMK A01 T02490109  RH  041%=      5-min Rain = 0
KSW1 201630Z 18014KT 25/11 A2981 RMK A01 T02500107  RH  041%=      5-min Rain = 0
KSW1 201631Z 18016KT 25/10 A2981 RMK A01 T02500100  RH  039%=      5-min Rain = 0
KSW1 201632Z 19016KT 25/10 A2981 RMK A01 T02490098  RH  039%=      5-min Rain = 0
KSW1 201633Z 19013KT 25/10 A2981 RMK A01 T02490100  RH  039%=      5-min Rain = 0
KSW1 201634Z 19013KT 25/10 A2981 RMK A01 T02510101  RH  039%=      5-min Rain = 0
KSW1 201635Z 18015KT 25/10 A2981 RMK A01 T02530098  RH  037%=      5-min Rain = 0
KSW1 201636Z 18016KT 25/10 A298 RMK A01 T02530096  RH  037%=      5-min Rain = 0
KSW1 201637Z 17018KT 25/10 A298 RMK A01 T02530097  RH  037%=      5-min Rain = 0
KSW1 201638Z 18014KT 25/10 A298 RMK A01 T02520099  RH  038%=      5-min Rain = 0
KSW1 201639Z 19016KT 25/10 A298 RMK A01 T02520100  RH  038%=      5-min Rain = 0
KSW1 201640Z 19016KT 25/10 A298 RMK A01 T02520100  RH  038%=      5-min Rain = 0
KSW1 201641Z 18017KT 25/10 A298 RMK A01 T02520099  RH  038%=      5-min Rain = 0
KSW1 201642Z 19014KT 25/10 A298 RMK A01 T02520099  RH  038%=      5-min Rain = 0
KSW1 201643Z 18014KT 25/10 A298 RMK A01 T02540102  RH  038%=      5-min Rain = 0
KSW1 201644Z 17016KT 26/10 A298 RMK A01 T02560099  RH  037%=      5-min Rain = 0
KSW1 201645Z 18017KT 26/10 A298 RMK A01 T02550100  RH  038%=      5-min Rain = 0
KSW1 201646Z 18018KT 25/10 A298 RMK A01 T02540099  RH  038%=      5-min Rain = 0
KSW1 201647Z 18017KT 25/10 A298 RMK A01 T02540097  RH  037%=      5-min Rain = 0
KSW1 201648Z 18015KT 25/10 A298 RMK A01 T02540097  RH  037%=      5-min Rain = 0
KSW1 201649Z 18015KT 26/10 A298 RMK A01 T02560100  RH  037%=      5-min Rain = 0
KSW1 201650Z 19017G22KT 26/10 A298 RMK A01 T02580098  RH  036%=      5-min Rain = 0
KSW1 201651Z 18013KT 26/10 A298 RMK A01 T02580099  RH  037%=      5-min Rain = 0
KSW1 201652Z 18015KT 26/10 A298 RMK A01 T02600101  RH  037%=      5-min Rain = 0
KSW1 201653Z 19014KT 26/10 A298 RMK A01 T02610100  RH  036%=      5-min Rain = 0
KSW1 201654Z 19014G19KT 26/10 A298 RMK A01 T02620100  RH  036%=      5-min Rain = 0
KSW1 201655Z 19015KT 26/10 A298 RMK A01 T02620098  RH  035%=      5-min Rain = 0
KSW1 201656Z 19016G21KT 26/10 A298 RMK A01 T02630097  RH  035%=      5-min Rain = 0
KSW1 201657Z 19018KT 26/09 A298 RMK A01 T02630094  RH  034%=      5-min Rain = 0
KSW1 201658Z 18016KT 26/10 A298 RMK A01 T02630097  RH  035%=      5-min Rain = 0
KSW1 201659Z 18014G19KT 26/10 A298 RMK A01 T02640098  RH  035%=      5-min Rain = 0
KSW1 201700Z 19016KT 27/10 A298 RMK A01 T02650099  RH  035%=      5-min Rain = 0
KSW1 201701Z 18014KT 27/10 A298 RMK A01 T02660097  RH  035%=      5-min Rain = 0
KSW1 201702Z 18016KT 27/10 A298 RMK A01 T02660097  RH  035%=      5-min Rain = 0
KSW1 201703Z 18017KT 27/10 A298 RMK A01 T02660097  RH  035%=      5-min Rain = 0
KSW1 201704Z 18015KT 27/10 A298 RMK A01 T02650097  RH  035%=      5-min Rain = 0
KSW1 201705Z 18016KT 27/10 A298 RMK A01 T02650096  RH  034%=      5-min Rain = 0
KSW1 201706Z 18017KT 27/10 A298 RMK A01 T02660096  RH  034%=      5-min Rain = 0
KSW1 201707Z 19013KT 27/10 A298 RMK A01 T02660096  RH  034%=      5-min Rain = 0
KSW1 201708Z 18012KT 27/10 A298 RMK A01 T02680100  RH  035%=      5-min Rain = 0
KSW1 201709Z 18014KT 27/10 A298 RMK A01 T02730100  RH  034%=      5-min Rain = 0
KSW1 201710Z 18015KT 27/10 A298 RMK A01 T02730101  RH  034%=      5-min Rain = 0
KSW1 201711Z 17013KT 27/10 A298 RMK A01 T02720100  RH  034%=      5-min Rain = 0
KSW1 201712Z 18012G17KT 27/10 A298 RMK A01 T02710101  RH  034%=      5-min Rain = 0
KSW1 201713Z 18014G19KT 27/10 A298 RMK A01 T02720102  RH  034%=      5-min Rain = 0
KSW1 201714Z 19015KT 27/10 A2979 RMK A01 T02730100  RH  034%=      5-min Rain = 0
KSW1 201715Z 19016KT 27/10 A2979 RMK A01 T02740101  RH  034%=      5-min Rain = 0
KSW1 201716Z 19016KT 27/10 A2979 RMK A01 T02730095  RH  033%=      5-min Rain = 0
KSW1 201717Z 20016KT 27/10 A2979 RMK A01 T02730098  RH  033%=      5-min Rain = 0
KSW1 201718Z 19015KT 28/10 A2979 RMK A01 T02760097  RH  033%=      5-min Rain = 0
KSW1 201719Z 20018KT 28/09 A2979 RMK A01 T02780094  RH  032%=      5-min Rain = 0
KSW1 201720Z 20017KT 28/09 A2979 RMK A01 T02770094  RH  032%=      5-min Rain = 0
KSW1 201721Z 19018G23KT 28/09 A2979 RMK A01 T02770094  RH  032%=      5-min Rain = 0
KSW1 201722Z 19019KT 28/10 A2979 RMK A01 T02770095  RH  032%=      5-min Rain = 0
KSW1 201723Z 19016KT 28/10 A2979 RMK A01 T02750096  RH  032%=      5-min Rain = 0
KSW1 201724Z 19019KT 27/10 A2979 RMK A01 T02740096  RH  033%=      5-min Rain = 0
KSW1 201725Z 19016KT 27/10 A2979 RMK A01 T02740096  RH  033%=      5-min Rain = 0
KSW1 201726Z 19016KT 28/10 A2979 RMK A01 T02750098  RH  033%=      5-min Rain = 0
KSW1 201727Z 20014KT 28/10 A2979 RMK A01 T02750098  RH  033%=      5-min Rain = 0
KSW1 201728Z 20014G19KT 28/10 A2979 RMK A01 T02780098  RH  033%=      5-min Rain = 0
KSW1 201729Z 19013G18KT 28/10 A2979 RMK A01 T02790098  RH  032%=      5-min Rain = 0
KSW1 201730Z 21013KT 28/10 A2979 RMK A01 T02800099  RH  032%=      5-min Rain = 0
KSW1 201731Z 20016KT 28/10 A2979 RMK A01 T02800099  RH  032%=      5-min Rain = 0
KSW1 201732Z 20019KT 28/10 A2979 RMK A01 T02810097  RH  031%=      5-min Rain = 0
KSW1 201733Z 20018KT 28/09 A2979 RMK A01 T02790094  RH  031%=      5-min Rain = 0
KSW1 201734Z 21013KT 28/10 A2979 RMK A01 T02760095  RH  032%=      5-min Rain = 0
KSW1 201735Z 19015KT 27/10 A2978 RMK A01 T02740096  RH  033%=      5-min Rain = 0
KSW1 201736Z 19015KT 27/10 A2978 RMK A01 T02740096  RH  033%=      5-min Rain = 0
KSW1 201737Z 19015KT 27/10 A2978 RMK A01 T02730098  RH  033%=      5-min Rain = 0
KSW1 201738Z 19015KT 27/10 A2978 RMK A01 T02740098  RH  033%=      5-min Rain = 0
KSW1 201739Z 18014KT 28/10 A2978 RMK A01 T02750098  RH  033%=      5-min Rain = 0
KSW1 201740Z 18017KT 28/10 A2978 RMK A01 T02760097  RH  033%=      5-min Rain = 0
KSW1 201741Z 19015KT 28/10 A2978 RMK A01 T02770097  RH  032%=      5-min Rain = 0
KSW1 201742Z 20017KT 28/10 A2978 RMK A01 T02790095  RH  032%=      5-min Rain = 0
KSW1 201743Z 21016KT 28/09 A2978 RMK A01 T02820094  RH  031%=      5-min Rain = 0
KSW1 201744Z 20014KT 28/09 A2978 RMK A01 T02840094  RH  031%=      5-min Rain = 0
KSW1 201745Z 21015G20KT 29/09 A2978 RMK A01 T02850092  RH  030%=      5-min Rain = 0
KSW1 201746Z 20017KT 29/09 A2978 RMK A01 T02850089  RH  029%=      5-min Rain = 0
KSW1 201747Z 20015KT 29/09 A2978 RMK A01 T02850088  RH  029%=      5-min Rain = 0
KSW1 201748Z 21016KT 28/09 A2978 RMK A01 T02840092  RH  030%=      5-min Rain = 0
KSW1 201749Z 20014KT 28/09 A2978 RMK A01 T02840093  RH  030%=      5-min Rain = 0
KSW1 201750Z 19014KT 29/09 A2978 RMK A01 T02860093  RH  030%=      5-min Rain = 0
KSW1 201751Z 21016KT 29/09 A2978 RMK A01 T02870094  RH  030%=      5-min Rain = 0
KSW1 201752Z 21015G21KT 29/09 A2978 RMK A01 T02860093  RH  030%=      5-min Rain = 0
KSW1 201753Z 22015KT 28/09 A2978 RMK A01 T02840093  RH  030%=      5-min Rain = 0
KSW1 201754Z 21015KT 28/10 A2978 RMK A01 T02840095  RH  031%=      5-min Rain = 0
KSW1 201755Z 20016KT 29/09 A2977 RMK A01 T02850094  RH  030%=      5-min Rain = 0
KSW1 201756Z 20015KT 29/10 A2977 RMK A01 T02870095  RH  030%=      5-min Rain = 0
KSW1 201757Z 20017KT 29/10 A2977 RMK A01 T02870095  RH  030%=      5-min Rain = 0
KSW1 201758Z 20015G20KT 29/09 A2977 RMK A01 T02890094  RH  030%=      5-min Rain = 0
KSW1 201759Z 20014KT 29/09 A2977 RMK A01 T02910093  RH  029%=      5-min Rain = 0
KSW1 201800Z 22014KT 29/09 A2977 RMK A01 T02910093  RH  029%=      5-min Rain = 0
KSW1 201801Z 22018KT 29/09 A2977 RMK A01 T02920085  RH  027%=      5-min Rain = 0
KSW1 201802Z 22020KT 29/08 A2977 RMK A01 T02910080  RH  027%=      5-min Rain = 0
KSW1 201803Z 23015G20KT 29/08 A2977 RMK A01 T02880082  RH  027%=      5-min Rain = 0
KSW1 201804Z 23017KT 29/08 A2977 RMK A01 T02860084  RH  028%=      5-min Rain = 0
KSW1 201805Z 22016KT 29/08 A2976 RMK A01 T02880083  RH  028%=      5-min Rain = 0
KSW1 201806Z 22015KT 29/09 A2976 RMK A01 T02880086  RH  028%=      5-min Rain = 0
KSW1 201807Z 22014KT 29/09 A2976 RMK A01 T02890088  RH  028%=      5-min Rain = 0
KSW1 201808Z 22012KT 29/09 A2976 RMK A01 T02890087  RH  028%=      5-min Rain = 0
KSW1 201809Z 20014KT 29/09 A2976 RMK A01 T02880090  RH  029%=      5-min Rain = 0
KSW1 201810Z 20017G22KT 29/09 A2976 RMK A01 T02900090  RH  029%=      5-min Rain = 0
KSW1 201811Z 20015KT 29/09 A2976 RMK A01 T02900088  RH  028%=      5-min Rain = 0
KSW1 201812Z 22012KT 29/09 A2976 RMK A01 T02890093  RH  029%=      5-min Rain = 0
KSW1 201813Z 21010KT 29/09 A2976 RMK A01 T02900093  RH  029%=      5-min Rain = 0
KSW1 201814Z 18015KT 29/10 A2976 RMK A01 T02910096  RH  030%=      5-min Rain = 0
KSW1 201815Z 19014KT 29/10 A2976 RMK A01 T02920095  RH  029%=      5-min Rain = 0
KSW1 201816Z 18016KT 29/10 A2976 RMK A01 T02920095  RH  029%=      5-min Rain = 0
KSW1 201817Z 19015KT 29/09 A2976 RMK A01 T02920092  RH  029%=      5-min Rain = 0
KSW1 201818Z 19014KT 29/09 A2976 RMK A01 T02910093  RH  029%=      5-min Rain = 0
KSW1 201819Z 19014KT 29/10 A2975 RMK A01 T02910098  RH  030%=      5-min Rain = 0
KSW1 201820Z 19014KT 30/10 A2975 RMK A01 T02950099  RH  030%=      5-min Rain = 0
KSW1 201821Z 22015KT 30/09 A2976 RMK A01 T02970093  RH  028%=      5-min Rain = 0
KSW1 201822Z 21013KT 30/09 A2975 RMK A01 T02970093  RH  028%=      5-min Rain = 0
KSW1 201823Z 20018KT 30/09 A2975 RMK A01 T02960094  RH  028%=      5-min Rain = 0
KSW1 201824Z 22017KT 30/09 A2975 RMK A01 T02960094  RH  028%=      5-min Rain = 0
KSW1 201825Z 22013G18KT 30/09 A2975 RMK A01 T02970092  RH  028%=      5-min Rain = 0
KSW1 201826Z 20014G21KT 30/09 A2975 RMK A01 T02950093  RH  028%=      5-min Rain = 0
KSW1 201827Z 21017G22KT 30/09 A2975 RMK A01 T02970091  RH  028%=      5-min Rain = 0
KSW1 201828Z 20017KT 30/09 A2975 RMK A01 T02990090  RH  027%=      5-min Rain = 0
KSW1 201829Z 22016G21KT 30/09 A2975 RMK A01 T03000089  RH  027%=      5-min Rain = 0
KSW1 201830Z 21017KT 30/08 A2975 RMK A01 T03010082  RH  025%=      5-min Rain = 0
KSW1 201831Z 20014G19KT 30/08 A2975 RMK A01 T02990081  RH  025%=      5-min Rain = 0
KSW1 201832Z 20015G20KT 30/08 A2975 RMK A01 T02990082  RH  026%=      5-min Rain = 0
KSW1 201833Z 23019G25KT 30/08 A2975 RMK A01 T03000084  RH  026%=      5-min Rain = 0
KSW1 201834Z 23015KT 30/08 A2975 RMK A01 T03010082  RH  025%=      5-min Rain = 0
KSW1 201835Z 22017G26KT 30/08 A2974 RMK A01 T03010082  RH  026%=      5-min Rain = 0
KSW1 201836Z 22019G24KT 30/08 A2975 RMK A01 T03010081  RH  025%=      5-min Rain = 0
KSW1 201837Z 22014KT 30/08 A2975 RMK A01 T02990082  RH  026%=      5-min Rain = 0
KSW1 201838Z 21014KT 30/08 A2974 RMK A01 T02980082  RH  026%=      5-min Rain = 0
KSW1 201839Z 21012KT 30/08 A2974 RMK A01 T02980081  RH  026%=      5-min Rain = 0
KSW1 201840Z 22017KT 30/08 A2974 RMK A01 T02990083  RH  026%=      5-min Rain = 0
KSW1 201841Z 21019KT 30/08 A2974 RMK A01 T02990082  RH  026%=      5-min Rain = 0
KSW1 201842Z 21015G22KT 30/08 A2974 RMK A01 T02990082  RH  026%=      5-min Rain = 0
KSW1 201843Z 21015G20KT 30/08 A2974 RMK A01 T02990084  RH  026%=      5-min Rain = 0
KSW1 201844Z 21018G23KT 30/08 A2974 RMK A01 T03010084  RH  026%=      5-min Rain = 0
KSW1 201845Z 22016KT 30/08 A2974 RMK A01 T03020084  RH  026%=      5-min Rain = 0
KSW1 201846Z 22013KT 30/08 A2974 RMK A01 T03010084  RH  026%=      5-min Rain = 0
KSW1 201847Z 21014KT 30/09 A2974 RMK A01 T02990085  RH  026%=      5-min Rain = 0
KSW1 201848Z 23013KT 30/09 A2973 RMK A01 T03000086  RH  026%=      5-min Rain = 0
KSW1 201849Z 22014KT 30/09 A2973 RMK A01 T03000085  RH  026%=      5-min Rain = 0
KSW1 201850Z 20014G20KT 30/09 A2973 RMK A01 T03010086  RH  026%=      5-min Rain = 0
KSW1 201851Z 20019G24KT 30/09 A2973 RMK A01 T03030085  RH  026%=      5-min Rain = 0
KSW1 201852Z 21018G23KT 30/08 A2973 RMK A01 T03030084  RH  026%=      5-min Rain = 0
KSW1 201853Z 22019KT 30/08 A2973 RMK A01 T03030084  RH  026%=      5-min Rain = 0
KSW1 201854Z 22015G21KT 30/08 A2973 RMK A01 T03020084  RH  026%=      5-min Rain = 0
KSW1 201855Z 22018KT 30/09 A2973 RMK A01 T03010085  RH  026%=      5-min Rain = 0
KSW1 201856Z 22015KT 30/08 A2973 RMK A01 T03010083  RH  026%=      5-min Rain = 0
KSW1 201857Z 23012KT 30/09 A2973 RMK A01 T03010086  RH  026%=      5-min Rain = 0
KSW1 201858Z 24017KT 30/09 A2972 RMK A01 T03040086  RH  026%=      5-min Rain = 0
KSW1 201859Z 24017KT 31/09 A2972 RMK A01 T03050085  RH  025%=      5-min Rain = 0
KSW1 201900Z 24015KT 31/08 A2972 RMK A01 T03050084  RH  025%=      5-min Rain = 0
KSW1 201901Z 23016G21KT 31/09 A2972 RMK A01 T03060086  RH  025%=      5-min Rain = 0
KSW1 201902Z 22018KT 31/08 A2972 RMK A01 T03090081  RH  024%=      5-min Rain = 0
KSW1 201903Z 21015KT 31/08 A2972 RMK A01 T03080082  RH  024%=      5-min Rain = 0
KSW1 201904Z 21016KT 31/08 A2972 RMK A01 T03080078  RH  024%=      5-min Rain = 0
KSW1 201905Z 23016G22KT 31/08 A2972 RMK A01 T03070080  RH  024%=      5-min Rain = 0
KSW1 201906Z 22015KT 31/08 A2972 RMK A01 T03070079  RH  024%=      5-min Rain = 0
KSW1 201907Z 21017KT 31/08 A2972 RMK A01 T03070079  RH  024%=      5-min Rain = 0
KSW1 201908Z 22022G29KT 31/08 A2972 RMK A01 T03080078  RH  024%=      5-min Rain = 0
KSW1 201909Z 23021G26KT 31/08 A2972 RMK A01 T03070077  RH  024%=      5-min Rain = 0
KSW1 201910Z 23019G24KT 31/08 A2972 RMK A01 T03070079  RH  024%=      5-min Rain = 0
KSW1 201911Z 23018G24KT 31/08 A2972 RMK A01 T03070079  RH  024%=      5-min Rain = 0
KSW1 201912Z 24020KT 31/08 A2972 RMK A01 T03080078  RH  024%=      5-min Rain = 0
KSW1 201913Z 23021KT 31/08 A2971 RMK A01 T03080077  RH  024%=      5-min Rain = 0
KSW1 201914Z 23017G24KT 31/08 A2971 RMK A01 T03070078  RH  024%=      5-min Rain = 0
KSW1 201915Z 23022G27KT 31/08 A2971 RMK A01 T03070077  RH  024%=      5-min Rain = 0
KSW1 201916Z 22020G26KT 31/08 A2971 RMK A01 T03060078  RH  024%=      5-min Rain = 0
KSW1 201917Z 21021G27KT 31/08 A2971 RMK A01 T03070078  RH  024%=      5-min Rain = 0
KSW1 201918Z 21021G26KT 31/08 A2971 RMK A01 T03090076  RH  023%=      5-min Rain = 0
KSW1 201919Z 21021KT 31/08 A2971 RMK A01 T03090077  RH  024%=      5-min Rain = 0
KSW1 201920Z 21020KT 31/08 A2971 RMK A01 T03080077  RH  024%=      5-min Rain = 0
KSW1 201921Z 21020KT 31/08 A2971 RMK A01 T03080076  RH  024%=      5-min Rain = 0
KSW1 201922Z 22015KT 31/08 A2971 RMK A01 T03080077  RH  024%=      5-min Rain = 0
KSW1 201923Z 23015G20KT 31/08 A2971 RMK A01 T03100081  RH  024%=      5-min Rain = 0
KSW1 201924Z 23017G23KT 31/08 A2971 RMK A01 T03120078  RH  023%=      5-min Rain = 0
KSW1 201925Z 23019KT 31/08 A2971 RMK A01 T03120077  RH  023%=      5-min Rain = 0
KSW1 201926Z 23017KT 31/08 A2971 RMK A01 T03100076  RH  023%=      5-min Rain = 0
KSW1 201927Z 23014KT 31/08 A2971 RMK A01 T03090078  RH  024%=      5-min Rain = 0
KSW1 201928Z 24015KT 31/08 A297 RMK A01 T03090077  RH  024%=      5-min Rain = 0
KSW1 201929Z 23015G20KT 31/08 A297 RMK A01 T03090078  RH  024%=      5-min Rain = 0
KSW1 201930Z 22019KT 31/08 A297 RMK A01 T03110078  RH  024%=      5-min Rain = 0
KSW1 201931Z 23021KT 31/08 A297 RMK A01 T03110078  RH  023%=      5-min Rain = 0
KSW1 201932Z 22019KT 31/08 A297 RMK A01 T03110078  RH  023%=      5-min Rain = 0
KSW1 201933Z 22016KT 31/08 A297 RMK A01 T03110079  RH  024%=      5-min Rain = 0
KSW1 201934Z 22017G24KT 31/08 A297 RMK A01 T03110077  RH  023%=      5-min Rain = 0
KSW1 201935Z 21013G18KT 31/08 A297 RMK A01 T03110078  RH  023%=      5-min Rain = 0
KSW1 201936Z 21018G26KT 31/08 A297 RMK A01 T03120079  RH  023%=      5-min Rain = 0
KSW1 201937Z 23020KT 31/08 A297 RMK A01 T03140078  RH  023%=      5-min Rain = 0
KSW1 201938Z 24016G22KT 31/08 A297 RMK A01 T03140077  RH  023%=      5-min Rain = 0
KSW1 201939Z 23016KT 31/08 A297 RMK A01 T03140077  RH  023%=      5-min Rain = 0
KSW1 201940Z 23020KT 31/08 A297 RMK A01 T03140078  RH  023%=      5-min Rain = 0
KSW1 201941Z 23022KT 31/08 A297 RMK A01 T03130076  RH  023%=      5-min Rain = 0
KSW1 201942Z 23022G27KT 31/08 A2969 RMK A01 T03100075  RH  023%=      5-min Rain = 0
KSW1 201943Z 23021KT 31/08 A2969 RMK A01 T03090076  RH  023%=      5-min Rain = 0
KSW1 201944Z 22020G25KT 31/08 A2969 RMK A01 T03090075  RH  023%=      5-min Rain = 0
KSW1 201945Z 22023G28KT 31/08 A2969 RMK A01 T03090075  RH  023%=      5-min Rain = 0
KSW1 201946Z 22018KT 31/08 A2969 RMK A01 T03090075  RH  023%=      5-min Rain = 0
KSW1 201947Z 22020KT 31/07 A2969 RMK A01 T03090074  RH  023%=      5-min Rain = 0
KSW1 201948Z 22017G22KT 31/08 A2969 RMK A01 T03080075  RH  023%=      5-min Rain = 0
KSW1 201949Z 22015KT 31/08 A2969 RMK A01 T03090077  RH  023%=      5-min Rain = 0
KSW1 201950Z 21014KT 31/08 A2969 RMK A01 T03110077  RH  023%=      5-min Rain = 0
KSW1 201951Z 22014KT 31/08 A2969 RMK A01 T03140081  RH  023%=      5-min Rain = 0
KSW1 201952Z 21016G21KT 32/08 A2969 RMK A01 T03180080  RH  023%=      5-min Rain = 0
KSW1 201953Z 20018KT 32/08 A2969 RMK A01 T03180078  RH  022%=      5-min Rain = 0
KSW1 201954Z 21015KT 32/08 A2969 RMK A01 T03170079  RH  023%=      5-min Rain = 0
KSW1 201955Z 21017G23KT 32/08 A2969 RMK A01 T03180080  RH  023%=      5-min Rain = 0
KSW1 201956Z 21018KT 32/08 A2969 RMK A01 T03170076  RH  022%=      5-min Rain = 0
KSW1 201957Z 21020G25KT 31/08 A2969 RMK A01 T03140077  RH  023%=      5-min Rain = 0
KSW1 201958Z 20018G25KT 31/08 A2969 RMK A01 T03130075  RH  023%=      5-min Rain = 0
KSW1 201959Z 20021KT 31/08 A2968 RMK A01 T03120075  RH  023%=      5-min Rain = 0
KSW1 202000Z 21021G26KT 31/08 A2968 RMK A01 T03120077  RH  023%=      5-min Rain = 0
KSW1 202001Z 21021KT 31/08 A2968 RMK A01 T03130075  RH  023%=      5-min Rain = 0
KSW1 202002Z 21021KT 31/07 A2968 RMK A01 T03110074  RH  023%=      5-min Rain = 0
KSW1 202003Z 20019G26KT 31/08 A2968 RMK A01 T03110075  RH  023%=      5-min Rain = 0
KSW1 202004Z 21018KT 31/08 A2968 RMK A01 T03110076  RH  023%=      5-min Rain = 0
KSW1 202005Z 21017KT 31/08 A2968 RMK A01 T03120076  RH  023%=      5-min Rain = 0
KSW1 202006Z 21014KT 31/08 A2968 RMK A01 T03130078  RH  023%=      5-min Rain = 0
KSW1 202007Z 23014KT 32/08 A2968 RMK A01 T03160079  RH  023%=      5-min Rain = 0
KSW1 202008Z 23017G27KT 32/08 A2968 RMK A01 T03170079  RH  023%=      5-min Rain = 0
KSW1 202009Z 23021KT 32/08 A2968 RMK A01 T03180077  RH  022%=      5-min Rain = 0
KSW1 202010Z 23021KT 32/08 A2968 RMK A01 T03160077  RH  023%=      5-min Rain = 0
KSW1 202011Z 23018KT 31/08 A2968 RMK A01 T03140076  RH  023%=      5-min Rain = 0
KSW1 202012Z 22019G24KT 31/08 A2968 RMK A01 T03130075  RH  023%=      5-min Rain = 0
KSW1 202013Z 22022KT 31/08 A2968 RMK A01 T03130075  RH  023%=      5-min Rain = 0
KSW1 202014Z 22022G28KT 31/07 A2968 RMK A01 T03140074  RH  022%=      5-min Rain = 0
KSW1 202015Z 23021G28KT 31/08 A2968 RMK A01 T03140075  RH  023%=      5-min Rain = 0
KSW1 202016Z 23021KT 32/08 A2968 RMK A01 T03150075  RH  022%=      5-min Rain = 0
KSW1 202017Z 23020G27KT 31/07 A2968 RMK A01 T03140074  RH  022%=      5-min Rain = 0
KSW1 202018Z 22020KT 31/07 A2968 RMK A01 T03120073  RH  023%=      5-min Rain = 0
KSW1 202019Z 22020KT 31/07 A2968 RMK A01 T03100073  RH  023%=      5-min Rain = 0
KSW1 202020Z 22021KT 31/07 A2968 RMK A01 T03110074  RH  023%=      5-min Rain = 0
KSW1 202021Z 22018G24KT 31/07 A2968 RMK A01 T03110074  RH  023%=      5-min Rain = 0
KSW1 202022Z 22018KT 31/08 A2968 RMK A01 T03110075  RH  023%=      5-min Rain = 0
KSW1 202023Z 21014KT 31/08 A2968 RMK A01 T03120076  RH  023%=      5-min Rain = 0
KSW1 202024Z 21016G22KT 32/08 A2968 RMK A01 T03150078  RH  023%=      5-min Rain = 0
KSW1 202025Z 21018KT 32/08 A2968 RMK A01 T03170076  RH  022%=      5-min Rain = 0
KSW1 202026Z 22020G25KT 32/08 A2968 RMK A01 T03160076  RH  022%=      5-min Rain = 0
KSW1 202027Z 22019KT 32/08 A2968 RMK A01 T03150075  RH  022%=      5-min Rain = 0
KSW1 202028Z 21019G25KT 31/08 A2968 RMK A01 T03140076  RH  023%=      5-min Rain = 0
KSW1 202029Z 22023KT 32/07 A2968 RMK A01 T03150073  RH  022%=      5-min Rain = 0
KSW1 202030Z 23020KT 32/07 A2968 RMK A01 T03150074  RH  022%=      5-min Rain = 0
KSW1 202031Z 23015KT 31/07 A2968 RMK A01 T03140074  RH  022%=      5-min Rain = 0
KSW1 202032Z 23017G24KT 32/08 A2968 RMK A01 T03150075  RH  022%=      5-min Rain = 0
KSW1 202033Z 23019G27KT 32/07 A2968 RMK A01 T03160073  RH  022%=      5-min Rain = 0
KSW1 202034Z 24018G23KT 32/08 A2967 RMK A01 T03150075  RH  022%=      5-min Rain = 0
KSW1 202035Z 23016G21KT 32/07 A2967 RMK A01 T03150073  RH  022%=      5-min Rain = 0
KSW1 202036Z 23016KT 32/08 A2967 RMK A01 T03150075  RH  022%=      5-min Rain = 0
KSW1 202037Z 22018KT 32/07 A2967 RMK A01 T03150073  RH  022%=      5-min Rain = 0
KSW1 202038Z 22022G27KT 32/07 A2967 RMK A01 T03150074  RH  022%=      5-min Rain = 0
KSW1 202039Z 22021G26KT 31/07 A2967 RMK A01 T03140072  RH  022%=      5-min Rain = 0
KSW1 202040Z 22023KT 31/07 A2967 RMK A01 T03140072  RH  022%=      5-min Rain = 0
KSW1 202041Z 23016G21KT 31/07 A2967 RMK A01 T03130070  RH  022%=      5-min Rain = 0
KSW1 202042Z 23021G26KT 32/07 A2967 RMK A01 T03150074  RH  022%=      5-min Rain = 0
KSW1 202043Z 23020KT 31/07 A2967 RMK A01 T03140071  RH  022%=      5-min Rain = 0
KSW1 202044Z 23022KT 31/07 A2967 RMK A01 T03130071  RH  022%=      5-min Rain = 0
KSW1 202045Z 24020G25KT 31/07 A2967 RMK A01 T03120071  RH  022%=      5-min Rain = 0
KSW1 202046Z 23020G25KT 31/07 A2967 RMK A01 T03130071  RH  022%=      5-min Rain = 0
KSW1 202047Z 23022KT 31/07 A2967 RMK A01 T03140070  RH  022%=      5-min Rain = 0
KSW1 202048Z 23025G30KT 31/07 A2967 RMK A01 T03140069  RH  022%=      5-min Rain = 0
KSW1 202049Z 23018G25KT 31/07 A2967 RMK A01 T03130069  RH  022%=      5-min Rain = 0
KSW1 202050Z 22019G24KT 31/07 A2967 RMK A01 T03130071  RH  022%=      5-min Rain = 0
KSW1 202051Z 23017KT 31/07 A2967 RMK A01 T03130072  RH  022%=      5-min Rain = 0
KSW1 202052Z 23019KT 31/07 A2967 RMK A01 T03140073  RH  022%=      5-min Rain = 0
KSW1 202053Z 22020KT 32/07 A2967 RMK A01 T03150071  RH  022%=      5-min Rain = 0
KSW1 202054Z 20022KT 32/07 A2967 RMK A01 T03150072  RH  022%=      5-min Rain = 0
KSW1 202055Z 21022KT 32/07 A2967 RMK A01 T03150071  RH  022%=      5-min Rain = 0
KSW1 202056Z 23018KT 32/07 A2967 RMK A01 T03150072  RH  022%=      5-min Rain = 0
KSW1 202057Z 22018KT 32/07 A2967 RMK A01 T03150073  RH  022%=      5-min Rain = 0
KSW1 202058Z 22018G23KT 31/07 A2967 RMK A01 T03140071  RH  022%=      5-min Rain = 0
KSW1 202059Z 23016KT 31/07 A2967 RMK A01 T03120072  RH  022%=      5-min Rain = 0
KSW1 202100Z 20018KT 31/07 A2967 RMK A01 T03120072  RH  022%=      5-min Rain = 0
KSW1 202101Z 21020KT 31/07 A2967 RMK A01 T03130071  RH  022%=      5-min Rain = 0
KSW1 202102Z 23018G25KT 31/07 A2967 RMK A01 T03140071  RH  022%=      5-min Rain = 0
KSW1 202103Z 23015G22KT 31/07 A2967 RMK A01 T03140073  RH  022%=      5-min Rain = 0
KSW1 202104Z 24015KT 32/07 A2967 RMK A01 T03150073  RH  022%=      5-min Rain = 0
KSW1 202105Z 24015KT 32/07 A2967 RMK A01 T03160073  RH  022%=      5-min Rain = 0
KSW1 202106Z 22015KT 32/07 A2967 RMK A01 T03160073  RH  022%=      5-min Rain = 0
KSW1 202107Z 22018KT 32/07 A2967 RMK A01 T03170073  RH  022%=      5-min Rain = 0
KSW1 202108Z 22020G25KT 32/07 A2967 RMK A01 T03180070  RH  021%=      5-min Rain = 0
KSW1 202109Z 22022KT 32/07 A2967 RMK A01 T03180070  RH  021%=      5-min Rain = 0
KSW1 202110Z 23023KT 32/07 A2967 RMK A01 T03170069  RH  021%=      5-min Rain = 0
KSW1 202111Z 23020G25KT 32/07 A2967 RMK A01 T03160067  RH  021%=      5-min Rain = 0
KSW1 202112Z 23019KT 32/07 A2967 RMK A01 T03150068  RH  021%=      5-min Rain = 0
KSW1 202113Z 24019KT 31/07 A2967 RMK A01 T03140068  RH  021%=      5-min Rain = 0
KSW1 202114Z 25020KT 31/07 A2967 RMK A01 T03140067  RH  021%=      5-min Rain = 0
KSW1 202115Z 24016KT 31/07 A2967 RMK A01 T03140066  RH  021%=      5-min Rain = 0
KSW1 202116Z 24015G20KT 32/07 A2967 RMK A01 T03150069  RH  022%=      5-min Rain = 0
KSW1 202117Z 24016KT 32/07 A2967 RMK A01 T03150069  RH  022%=      5-min Rain = 0
KSW1 202118Z 23021G27KT 32/07 A2967 RMK A01 T03160070  RH  022%=      5-min Rain = 0
KSW1 202119Z 24020KT 32/07 A2967 RMK A01 T03160070  RH  022%=      5-min Rain = 0
KSW1 202120Z 23015G20KT 32/07 A2967 RMK A01 T03160069  RH  021%=      5-min Rain = 0
KSW1 202121Z 23015KT 32/07 A2967 RMK A01 T03170068  RH  021%=      5-min Rain = 0
KSW1 202122Z 22015KT 32/07 A2967 RMK A01 T03150069  RH  021%=      5-min Rain = 0
KSW1 202123Z 21017G22KT 32/07 A2967 RMK A01 T03160070  RH  021%=      5-min Rain = 0
KSW1 202124Z 22022KT 32/07 A2967 RMK A01 T03180071  RH  021%=      5-min Rain = 0
KSW1 202125Z 22020KT 32/07 A2967 RMK A01 T03180068  RH  021%=      5-min Rain = 0
KSW1 202126Z 23017G23KT 32/07 A2967 RMK A01 T03160067  RH  021%=      5-min Rain = 0
KSW1 202127Z 23018G23KT 32/07 A2967 RMK A01 T03160069  RH  021%=      5-min Rain = 0
KSW1 202128Z 23020G26KT 32/07 A2967 RMK A01 T03160066  RH  021%=      5-min Rain = 0
KSW1 202129Z 24020G25KT 31/07 A2967 RMK A01 T03140066  RH  021%=      5-min Rain = 0
KSW1 202130Z 23023G29KT 31/07 A2967 RMK A01 T03130065  RH  021%=      5-min Rain = 0
KSW1 202131Z 23019KT 31/07 A2967 RMK A01 T03130065  RH  021%=      5-min Rain = 0
KSW1 202132Z 23017KT 31/07 A2967 RMK A01 T03140066  RH  021%=      5-min Rain = 0
KSW1 202133Z 24018G27KT 32/07 A2967 RMK A01 T03150066  RH  021%=      5-min Rain = 0
KSW1 202134Z 24020G27KT 32/07 A2967 RMK A01 T03160065  RH  021%=      5-min Rain = 0
KSW1 202135Z 24024KT 32/06 A2967 RMK A01 T03160064  RH  021%=      5-min Rain = 0
KSW1 202136Z 24022KT 32/06 A2967 RMK A01 T03150064  RH  021%=      5-min Rain = 0
KSW1 202137Z 24018G23KT 31/07 A2967 RMK A01 T03140066  RH  021%=      5-min Rain = 0
KSW1 202138Z 24022KT 31/07 A2967 RMK A01 T03130066  RH  021%=      5-min Rain = 0
KSW1 202139Z 24018G24KT 31/07 A2967 RMK A01 T03130067  RH  022%=      5-min Rain = 0
KSW1 202140Z 24021KT 31/07 A2967 RMK A01 T03130067  RH  021%=      5-min Rain = 0
KSW1 202141Z 24022G29KT 31/07 A2966 RMK A01 T03130065  RH  021%=      5-min Rain = 0
KSW1 202142Z 23021G27KT 31/07 A2966 RMK A01 T03130067  RH  021%=      5-min Rain = 0
KSW1 202143Z 22020G25KT 31/07 A2967 RMK A01 T03130068  RH  022%=      5-min Rain = 0
KSW1 202144Z 22022KT 31/07 A2966 RMK A01 T03130067  RH  021%=      5-min Rain = 0
KSW1 202145Z 21021KT 31/07 A2966 RMK A01 T03130067  RH  022%=      5-min Rain = 0
KSW1 202146Z 21021KT 31/07 A2966 RMK A01 T03130066  RH  021%=      5-min Rain = 0
KSW1 202147Z 22019G25KT 31/07 A2966 RMK A01 T03120067  RH  022%=      5-min Rain = 0
KSW1 202148Z 23022KT 31/07 A2966 RMK A01 T03120067  RH  022%=      5-min Rain = 0
KSW1 202149Z 22022G27KT 31/07 A2966 RMK A01 T03130065  RH  021%=      5-min Rain = 0
KSW1 202150Z 23021G26KT 31/06 A2966 RMK A01 T03130063  RH  021%=      5-min Rain = 0
KSW1 202151Z 23018KT 31/06 A2966 RMK A01 T03130063  RH  021%=      5-min Rain = 0
KSW1 202152Z 24021KT 31/06 A2966 RMK A01 T03130064  RH  021%=      5-min Rain = 0
KSW1 202153Z 23016KT 31/07 A2966 RMK A01 T03120065  RH  021%=      5-min Rain = 0
KSW1 202154Z 23015KT 31/07 A2966 RMK A01 T03120066  RH  021%=      5-min Rain = 0
KSW1 202155Z 23014G19KT 31/07 A2966 RMK A01 T03130067  RH  021%=      5-min Rain = 0
KSW1 202156Z 23015KT 31/07 A2966 RMK A01 T03140067  RH  021%=      5-min Rain = 0
KSW1 202157Z 23013KT 31/07 A2966 RMK A01 T03140068  RH  021%=      5-min Rain = 0
KSW1 202158Z 21012KT 32/07 A2966 RMK A01 T03150070  RH  022%=      5-min Rain = 0
KSW1 202159Z 22014KT 32/07 A2966 RMK A01 T03160070  RH  022%=      5-min Rain = 0
KSW1 202200Z 23016KT 32/07 A2966 RMK A01 T03160070  RH  021%=      5-min Rain = 0
KSW1 202201Z 22020KT 32/07 A2966 RMK A01 T03160065  RH  021%=      5-min Rain = 0
KSW1 202202Z 21021G27KT 32/06 A2966 RMK A01 T03150062  RH  021%=      5-min Rain = 0
KSW1 202203Z 22019G24KT 31/06 A2966 RMK A01 T03140062  RH  021%=      5-min Rain = 0
KSW1 202204Z 23021G26KT 31/06 A2966 RMK A01 T03140061  RH  020%=      5-min Rain = 0
KSW1 202205Z 23018G23KT 31/06 A2966 RMK A01 T03130062  RH  021%=      5-min Rain = 0
KSW1 202206Z 23019KT 31/06 A2966 RMK A01 T03130061  RH  021%=      5-min Rain = 0
KSW1 202207Z 24017KT 31/06 A2966 RMK A01 T03130062  RH  021%=      5-min Rain = 0
KSW1 202208Z 23017KT 31/06 A2966 RMK A01 T03120062  RH  021%=      5-min Rain = 0
KSW1 202209Z 22015KT 31/06 A2966 RMK A01 T03120063  RH  021%=      5-min Rain = 0
KSW1 202210Z 23019KT 31/06 A2966 RMK A01 T03120064  RH  021%=      5-min Rain = 0
KSW1 202211Z 22022KT 31/06 A2966 RMK A01 T03130062  RH  021%=      5-min Rain = 0
KSW1 202212Z 23022KT 31/06 A2966 RMK A01 T03130061  RH  021%=      5-min Rain = 0
KSW1 202213Z 22017KT 31/06 A2966 RMK A01 T03120059  RH  020%=      5-min Rain = 0
KSW1 202214Z 22017KT 31/06 A2966 RMK A01 T03130060  RH  020%=      5-min Rain = 0
KSW1 202215Z 22016G22KT 31/06 A2966 RMK A01 T03130060  RH  021%=      5-min Rain = 0
KSW1 202216Z 22018KT 31/06 A2966 RMK A01 T03130059  RH  020%=      5-min Rain = 0
KSW1 202217Z 22015KT 31/06 A2966 RMK A01 T03130060  RH  021%=      5-min Rain = 0
KSW1 202218Z 22015KT 31/06 A2966 RMK A01 T03130060  RH  020%=      5-min Rain = 0
KSW1 202219Z 23016KT 31/06 A2966 RMK A01 T03130061  RH  021%=      5-min Rain = 0
KSW1 202220Z 23018KT 31/06 A2966 RMK A01 T03130060  RH  020%=      5-min Rain = 0
KSW1 202221Z 22019KT 31/06 A2966 RMK A01 T03120061  RH  021%=      5-min Rain = 0
KSW1 202222Z 23021KT 31/06 A2966 RMK A01 T03120060  RH  021%=      5-min Rain = 0
KSW1 202223Z 22015KT 31/06 A2966 RMK A01 T03120060  RH  021%=      5-min Rain = 0
KSW1 202224Z 22016KT 31/06 A2966 RMK A01 T03120062  RH  021%=      5-min Rain = 0
KSW1 202225Z 22015KT 31/06 A2966 RMK A01 T03130061  RH  021%=      5-min Rain = 0
KSW1 202226Z 22015KT 31/06 A2966 RMK A01 T03130060  RH  020%=      5-min Rain = 0
KSW1 202227Z 24018G24KT 31/06 A2966 RMK A01 T03130061  RH  021%=      5-min Rain = 0
KSW1 202228Z 23018KT 31/06 A2966 RMK A01 T03130061  RH  021%=      5-min Rain = 0
KSW1 202229Z 23018KT 31/06 A2966 RMK A01 T03120061  RH  021%=      5-min Rain = 0
KSW1 202230Z 23019KT 31/06 A2966 RMK A01 T03120060  RH  021%=      5-min Rain = 0
KSW1 202231Z 22014G19KT 31/06 A2966 RMK A01 T03120061  RH  021%=      5-min Rain = 0
KSW1 202232Z 23013G19KT 31/06 A2966 RMK A01 T03120062  RH  021%=      5-min Rain = 0
KSW1 202233Z 23017KT 31/06 A2966 RMK A01 T03120060  RH  021%=      5-min Rain = 0
KSW1 202234Z 23014G19KT 31/06 A2966 RMK A01 T03100061  RH  021%=      5-min Rain = 0
KSW1 202235Z 23016KT 31/06 A2966 RMK A01 T03100060  RH  021%=      5-min Rain = 0
KSW1 202236Z 22015G22KT 31/06 A2966 RMK A01 T03100058  RH  021%=      5-min Rain = 0
KSW1 202237Z 22018G23KT 31/06 A2966 RMK A01 T03100058  RH  020%=      5-min Rain = 0
KSW1 202238Z 22015G20KT 31/06 A2966 RMK A01 T03100058  RH  020%=      5-min Rain = 0
KSW1 202239Z 23018KT 31/06 A2966 RMK A01 T03110057  RH  020%=      5-min Rain = 0
KSW1 202240Z 24020G25KT 31/06 A2966 RMK A01 T03110056  RH  020%=      5-min Rain = 0
KSW1 202241Z 23018G23KT 31/06 A2966 RMK A01 T03120056  RH  020%=      5-min Rain = 0
KSW1 202242Z 23020G25KT 31/05 A2966 RMK A01 T03120054  RH  020%=      5-min Rain = 0
KSW1 202243Z 22017KT 31/05 A2966 RMK A01 T03120054  RH  020%=      5-min Rain = 0
KSW1 202244Z 22015KT 31/06 A2965 RMK A01 T03120055  RH  020%=      5-min Rain = 0
KSW1 202245Z 23017KT 31/06 A2966 RMK A01 T03120056  RH  020%=      5-min Rain = 0
KSW1 202246Z 22014G19KT 31/06 A2966 RMK A01 T03120056  RH  020%=      5-min Rain = 0
KSW1 202247Z 23014KT 31/06 A2966 RMK A01 T03110057  RH  020%=      5-min Rain = 0
KSW1 202248Z 23014KT 31/06 A2966 RMK A01 T03110058  RH  020%=      5-min Rain = 0
KSW1 202249Z 23017KT 31/06 A2966 RMK A01 T03110058  RH  020%=      5-min Rain = 0
KSW1 202250Z 23016KT 31/06 A2965 RMK A01 T03110058  RH  020%=      5-min Rain = 0
KSW1 202251Z 22013KT 31/06 A2965 RMK A01 T03110058  RH  020%=      5-min Rain = 0
KSW1 202252Z 23012KT 31/06 A2965 RMK A01 T03110059  RH  020%=      5-min Rain = 0
KSW1 202253Z 23012KT 31/06 A2965 RMK A01 T03110059  RH  021%=      5-min Rain = 0
KSW1 202254Z 22013G19KT 31/06 A2965 RMK A01 T03110059  RH  020%=      5-min Rain = 0
KSW1 202255Z 22014KT 31/06 A2965 RMK A01 T03120058  RH  020%=      5-min Rain = 0
KSW1 202256Z 23013G18KT 31/06 A2965 RMK A01 T03120059  RH  020%=      5-min Rain = 0
KSW1 202257Z 23015KT 31/06 A2965 RMK A01 T03120059  RH  020%=      5-min Rain = 0
KSW1 202258Z 23012KT 31/06 A2965 RMK A01 T03120059  RH  020%=      5-min Rain = 0
KSW1 202259Z 23013KT 31/06 A2965 RMK A01 T03100060  RH  021%=      5-min Rain = 0
KSW1 202300Z 22015G20KT 31/06 A2965 RMK A01 T03090059  RH  021%=      5-min Rain = 0
KSW1 202301Z 23015KT 31/06 A2965 RMK A01 T03070057  RH  021%=      5-min Rain = 0
KSW1 202302Z 23014KT 31/06 A2965 RMK A01 T03060057  RH  021%=      5-min Rain = 0
KSW1 202303Z 23014KT 31/06 A2965 RMK A01 T03050058  RH  021%=      5-min Rain = 0
KSW1 202304Z 22015KT 31/06 A2965 RMK A01 T03050058  RH  021%=      5-min Rain = 0
KSW1 202305Z 22012KT 31/06 A2965 RMK A01 T03050059  RH  021%=      5-min Rain = 0
KSW1 202306Z 23011KT 31/06 A2965 RMK A01 T03050060  RH  021%=      5-min Rain = 0
KSW1 202307Z 23013KT 31/06 A2966 RMK A01 T03050060  RH  021%=      5-min Rain = 0
KSW1 202308Z 22012KT 30/06 A2966 RMK A01 T03040060  RH  022%=      5-min Rain = 0
KSW1 202309Z 23014G19KT 30/06 A2965 RMK A01 T03040059  RH  021%=      5-min Rain = 0
KSW1 202310Z 23016KT 30/06 A2965 RMK A01 T03040056  RH  021%=      5-min Rain = 0
KSW1 202311Z 23017KT 31/05 A2965 RMK A01 T03070053  RH  020%=      5-min Rain = 0
KSW1 202312Z 24016KT 31/05 A2965 RMK A01 T03080054  RH  020%=      5-min Rain = 0
KSW1 202313Z 24013KT 31/05 A2965 RMK A01 T03080053  RH  020%=      5-min Rain = 0
KSW1 202314Z 24016KT 31/05 A2965 RMK A01 T03080054  RH  020%=      5-min Rain = 0
KSW1 202315Z 24014G19KT 31/05 A2965 RMK A01 T03090054  RH  020%=      5-min Rain = 0
KSW1 202316Z 24015G22KT 31/05 A2965 RMK A01 T03080054  RH  020%=      5-min Rain = 0
KSW1 202317Z 23016G21KT 31/05 A2965 RMK A01 T03090054  RH  020%=      5-min Rain = 0
KSW1 202318Z 23014KT 31/05 A2965 RMK A01 T03090053  RH  020%=      5-min Rain = 0
KSW1 202319Z 23012KT 31/05 A2965 RMK A01 T03080054  RH  020%=      5-min Rain = 0
KSW1 202320Z 23015KT 31/06 A2965 RMK A01 T03080055  RH  020%=      5-min Rain = 0
KSW1 202321Z 23016KT 31/05 A2965 RMK A01 T03080054  RH  020%=      5-min Rain = 0
KSW1 202322Z 23011KT 31/05 A2965 RMK A01 T03080054  RH  020%=      5-min Rain = 0
KSW1 202323Z 24013G19KT 31/06 A2965 RMK A01 T03070055  RH  020%=      5-min Rain = 0
KSW1 202324Z 24015KT 31/05 A2965 RMK A01 T03070052  RH  020%=      5-min Rain = 0
KSW1 202325Z 24015KT 31/05 A2965 RMK A01 T03070053  RH  020%=      5-min Rain = 0
KSW1 202326Z 23015KT 31/05 A2965 RMK A01 T03070053  RH  020%=      5-min Rain = 0
KSW1 202327Z 23010KT 31/06 A2965 RMK A01 T03060055  RH  020%=      5-min Rain = 0
KSW1 202328Z 23011KT 31/06 A2965 RMK A01 T03050055  RH  021%=      5-min Rain = 0
KSW1 202329Z 23013KT 31/06 A2965 RMK A01 T03050055  RH  021%=      5-min Rain = 0
KSW1 202330Z 23017KT 30/05 A2965 RMK A01 T03040052  RH  020%=      5-min Rain = 0
KSW1 202331Z 23015KT 31/05 A2965 RMK A01 T03050051  RH  020%=      5-min Rain = 0
KSW1 202332Z 23011KT 31/05 A2965 RMK A01 T03050052  RH  020%=      5-min Rain = 0
KSW1 202333Z 23014KT 30/05 A2965 RMK A01 T03040053  RH  020%=      5-min Rain = 0
KSW1 202334Z 23013KT 30/05 A2965 RMK A01 T03040053  RH  021%=      5-min Rain = 0
KSW1 202335Z 23011KT 30/05 A2965 RMK A01 T03030053  RH  021%=      5-min Rain = 0
KSW1 202336Z 23013KT 30/05 A2965 RMK A01 T03020053  RH  021%=      5-min Rain = 0
KSW1 202337Z 23015KT 30/05 A2965 RMK A01 T03010052  RH  021%=      5-min Rain = 0
KSW1 202338Z 23016G21KT 30/05 A2965 RMK A01 T03010051  RH  021%=      5-min Rain = 0
KSW1 202339Z 23015G20KT 30/05 A2965 RMK A01 T03020050  RH  020%=      5-min Rain = 0
KSW1 202340Z 24014KT 30/05 A2965 RMK A01 T03030052  RH  020%=      5-min Rain = 0
KSW1 202341Z 24013KT 30/05 A2965 RMK A01 T03020052  RH  021%=      5-min Rain = 0
KSW1 202342Z 24012KT 30/05 A2965 RMK A01 T03020053  RH  021%=      5-min Rain = 0
KSW1 202343Z 23011KT 30/05 A2965 RMK A01 T03000053  RH  021%=      5-min Rain = 0
KSW1 202344Z 24010KT 30/05 A2965 RMK A01 T02990053  RH  021%=      5-min Rain = 0
KSW1 202345Z 24010KT 30/05 A2965 RMK A01 T02980053  RH  021%=      5-min Rain = 0
KSW1 202346Z 24010KT 30/05 A2965 RMK A01 T02970054  RH  021%=      5-min Rain = 0
KSW1 202347Z 24011KT 30/05 A2965 RMK A01 T02960053  RH  021%=      5-min Rain = 0
KSW1 202348Z 24012KT 30/05 A2965 RMK A01 T02960052  RH  021%=      5-min Rain = 0
KSW1 202349Z 24012KT 30/05 A2965 RMK A01 T02970052  RH  021%=      5-min Rain = 0
KSW1 202350Z 24012KT 30/05 A2965 RMK A01 T02970053  RH  021%=      5-min Rain = 0
KSW1 202351Z 24014KT 30/05 A2965 RMK A01 T02970053  RH  021%=      5-min Rain = 0
KSW1 202352Z 24013KT 30/05 A2965 RMK A01 T02970052  RH  021%=      5-min Rain = 0
KSW1 202353Z 24012KT 30/05 A2965 RMK A01 T02960052  RH  021%=      5-min Rain = 0
KSW1 202354Z 24013KT 30/05 A2965 RMK A01 T02960053  RH  021%=      5-min Rain = 0
KSW1 202355Z 23012KT 30/05 A2965 RMK A01 T02950052  RH  021%=      5-min Rain = 0
KSW1 202356Z 23012KT 30/05 A2965 RMK A01 T02950053  RH  022%=      5-min Rain = 0
KSW1 202357Z 24013G18KT 29/05 A2965 RMK A01 T02940052  RH  022%=      5-min Rain = 0
KSW1 202358Z 24014KT 29/05 A2965 RMK A01 T02940051  RH  021%=      5-min Rain = 0
KSW1 202359Z 23012KT 30/05 A2965 RMK A01 T02950051  RH  021%=      5-min Rain = 0
KSW1 210000Z 23011KT 30/05 A2965 RMK A01 T02950052  RH  021%=      5-min Rain = 0
KSW1 210001Z 23012KT 29/05 A2965 RMK A01 T02940052  RH  022%=      5-min Rain = 0
KSW1 210002Z 23012KT 29/05 A2965 RMK A01 T02920052  RH  022%=      5-min Rain = 0
KSW1 210003Z 23010KT 29/05 A2965 RMK A01 T02910052  RH  022%=      5-min Rain = 0
KSW1 210004Z 24011KT 29/05 A2965 RMK A01 T02900053  RH  022%=      5-min Rain = 0
KSW1 210005Z 24010KT 29/05 A2966 RMK A01 T02890052  RH  022%=      5-min Rain = 0
KSW1 210006Z 24010KT 29/05 A2966 RMK A01 T02880052  RH  022%=      5-min Rain = 0
KSW1 210007Z 24010KT 29/05 A2966 RMK A01 T02870053  RH  023%=      5-min Rain = 0
KSW1 210008Z 24010KT 29/05 A2966 RMK A01 T02860053  RH  023%=      5-min Rain = 0
KSW1 210009Z 24009KT 29/05 A2966 RMK A01 T02850053  RH  023%=      5-min Rain = 0
KSW1 210010Z 24009KT 28/05 A2966 RMK A01 T02840053  RH  023%=      5-min Rain = 0
KSW1 210011Z 24009KT 28/05 A2966 RMK A01 T02830053  RH  023%=      5-min Rain = 0
KSW1 210012Z 25009KT 28/05 A2966 RMK A01 T02820053  RH  023%=      5-min Rain = 0
KSW1 210013Z 24009KT 28/05 A2966 RMK A01 T02820053  RH  023%=      5-min Rain = 0
KSW1 210014Z 24008KT 28/05 A2966 RMK A01 T02810053  RH  024%=      5-min Rain = 0
KSW1 210015Z 25008KT 28/05 A2966 RMK A01 T02800054  RH  024%=      5-min Rain = 0
KSW1 210016Z 25007KT 28/05 A2966 RMK A01 T02780054  RH  024%=      5-min Rain = 0
KSW1 210017Z 25008KT 28/05 A2966 RMK A01 T02770054  RH  024%=      5-min Rain = 0
KSW1 210018Z 25007KT 28/05 A2966 RMK A01 T02760054  RH  024%=      5-min Rain = 0
KSW1 210019Z 25008KT 27/06 A2966 RMK A01 T02740055  RH  025%=      5-min Rain = 0
KSW1 210020Z 25008KT 27/06 A2966 RMK A01 T02730055  RH  025%=      5-min Rain = 0
KSW1 210021Z 25008KT 27/06 A2966 RMK A01 T02720056  RH  025%=      5-min Rain = 0
KSW1 210022Z 25008KT 27/06 A2966 RMK A01 T02720056  RH  025%=      5-min Rain = 0
KSW1 210023Z 25008KT 27/06 A2966 RMK A01 T02710056  RH  025%=      5-min Rain = 0
KSW1 210024Z 25008KT 27/06 A2966 RMK A01 T02710057  RH  026%=      5-min Rain = 0
KSW1 210025Z 26009KT 27/06 A2966 RMK A01 T02710057  RH  026%=      5-min Rain = 0
KSW1 210026Z 26008KT 27/06 A2966 RMK A01 T02710057  RH  026%=      5-min Rain = 0
KSW1 210027Z 26008KT 27/06 A2966 RMK A01 T02710058  RH  026%=      5-min Rain = 0
KSW1 210028Z 26009KT 27/06 A2966 RMK A01 T02710059  RH  026%=      5-min Rain = 0
KSW1 210029Z 26008KT 27/06 A2966 RMK A01 T02710059  RH  026%=      5-min Rain = 0
KSW1 210030Z 26009KT 27/06 A2966 RMK A01 T02710059  RH  026%=      5-min Rain = 0
KSW1 210031Z 26009KT 27/06 A2966 RMK A01 T02720060  RH  026%=      5-min Rain = 0
KSW1 210032Z 26008KT 27/06 A2966 RMK A01 T02730060  RH  026%=      5-min Rain = 0
KSW1 210033Z 26008KT 27/06 A2966 RMK A01 T02730060  RH  026%=      5-min Rain = 0
KSW1 210034Z 26008KT 27/06 A2966 RMK A01 T02730060  RH  026%=      5-min Rain = 0
KSW1 210035Z 26008KT 27/06 A2966 RMK A01 T02720060  RH  026%=      5-min Rain = 0
KSW1 210036Z 26008KT 27/06 A2966 RMK A01 T02720060  RH  026%=      5-min Rain = 0
KSW1 210037Z 26008KT 27/06 A2966 RMK A01 T02720060  RH  026%=      5-min Rain = 0
KSW1 210038Z 25008KT 27/06 A2966 RMK A01 T02720060  RH  026%=      5-min Rain = 0
KSW1 210039Z 25008KT 27/06 A2966 RMK A01 T02710061  RH  026%=      5-min Rain = 0
KSW1 210040Z 25008KT 27/06 A2966 RMK A01 T02700061  RH  026%=      5-min Rain = 0
KSW1 210041Z 25007KT 27/06 A2966 RMK A01 T02680061  RH  027%=      5-min Rain = 0
KSW1 210042Z 25007KT 27/06 A2966 RMK A01 T02670061  RH  027%=      5-min Rain = 0
KSW1 210043Z 25007KT 27/06 A2966 RMK A01 T02650061  RH  027%=      5-min Rain = 0
KSW1 210044Z 24007KT 26/06 A2967 RMK A01 T02640060  RH  027%=      5-min Rain = 0
KSW1 210045Z 24007KT 26/06 A2966 RMK A01 T02620060  RH  027%=      5-min Rain = 0
KSW1 210046Z 24008KT 26/06 A2967 RMK A01 T02600060  RH  028%=      5-min Rain = 0
KSW1 210047Z 24007KT 26/06 A2967 RMK A01 T02580060  RH  028%=      5-min Rain = 0
KSW1 210048Z 24007KT 26/06 A2967 RMK A01 T02570060  RH  028%=      5-min Rain = 0
KSW1 210049Z 24008KT 26/06 A2967 RMK A01 T02570060  RH  028%=      5-min Rain = 0
KSW1 210050Z 24007KT 26/06 A2967 RMK A01 T02570060  RH  028%=      5-min Rain = 0
KSW1 210051Z 24007KT 26/06 A2967 RMK A01 T02570060  RH  028%=      5-min Rain = 0
KSW1 210052Z 24007KT 26/06 A2967 RMK A01 T02570061  RH  029%=      5-min Rain = 0
KSW1 210053Z 24006KT 26/06 A2967 RMK A01 T02560061  RH  029%=      5-min Rain = 0
KSW1 210054Z 24007KT 26/06 A2967 RMK A01 T02550061  RH  029%=      5-min Rain = 0
KSW1 210055Z 24007KT 26/06 A2967 RMK A01 T02550061  RH  029%=      5-min Rain = 0
KSW1 210056Z 24006KT 25/06 A2967 RMK A01 T02540062  RH  029%=      5-min Rain = 0
KSW1 210057Z 24007KT 25/06 A2967 RMK A01 T02540061  RH  029%=      5-min Rain = 0
KSW1 210058Z 24006KT 25/06 A2967 RMK A01 T02530061  RH  029%=      5-min Rain = 0
KSW1 210059Z 24007KT 25/06 A2967 RMK A01 T02530061  RH  029%=      5-min Rain = 0
KSW1 210100Z 24007KT 25/06 A2967 RMK A01 T02520061  RH  029%=      5-min Rain = 0
KSW1 210101Z 24006KT 25/06 A2967 RMK A01 T02520061  RH  029%=      5-min Rain = 0
KSW1 210102Z 24006KT 25/06 A2967 RMK A01 T02520061  RH  029%=      5-min Rain = 0
KSW1 210103Z 24006KT 25/06 A2967 RMK A01 T02510061  RH  030%=      5-min Rain = 0
KSW1 210104Z 24006KT 25/06 A2967 RMK A01 T02500061  RH  030%=      5-min Rain = 0
KSW1 210105Z 24005KT 25/06 A2967 RMK A01 T02490061  RH  030%=      5-min Rain = 0
KSW1 210106Z 24006KT 25/06 A2967 RMK A01 T02490061  RH  030%=      5-min Rain = 0
KSW1 210107Z 24006KT 25/06 A2968 RMK A01 T02480061  RH  030%=      5-min Rain = 0
KSW1 210108Z 24006KT 25/06 A2968 RMK A01 T02470061  RH  030%=      5-min Rain = 0
KSW1 210109Z 24006KT 25/06 A2968 RMK A01 T02470061  RH  030%=      5-min Rain = 0
KSW1 210110Z 23006KT 25/06 A2968 RMK A01 T02470061  RH  030%=      5-min Rain = 0
KSW1 210111Z 23007KT 25/06 A2968 RMK A01 T02470060  RH  030%=      5-min Rain = 0
KSW1 210112Z 23006KT 25/06 A2968 RMK A01 T02460060  RH  030%=      5-min Rain = 0
KSW1 210113Z 23006KT 25/06 A2968 RMK A01 T02460060  RH  030%=      5-min Rain = 0
KSW1 210114Z 23006KT 25/06 A2968 RMK A01 T02450060  RH  030%=      5-min Rain = 0
KSW1 210115Z 23006KT 25/06 A2968 RMK A01 T02450060  RH  030%=      5-min Rain = 0
KSW1 210116Z 23006KT 25/06 A2968 RMK A01 T02450060  RH  030%=      5-min Rain = 0
KSW1 210117Z 23006KT 24/06 A2968 RMK A01 T02440060  RH  031%=      5-min Rain = 0
KSW1 210118Z 23006KT 24/06 A2968 RMK A01 T02430060  RH  031%=      5-min Rain = 0
KSW1 210119Z 23006KT 24/06 A2968 RMK A01 T02430060  RH  031%=      5-min Rain = 0
KSW1 210120Z 23006KT 24/06 A2968 RMK A01 T02420059  RH  031%=      5-min Rain = 0
KSW1 210121Z 23006KT 24/06 A2968 RMK A01 T02420060  RH  031%=      5-min Rain = 0
KSW1 210122Z 23006KT 24/06 A2968 RMK A01 T02420059  RH  031%=      5-min Rain = 0
KSW1 210123Z 23006KT 24/06 A2968 RMK A01 T02420059  RH  031%=      5-min Rain = 0
KSW1 210124Z 23006KT 24/06 A2968 RMK A01 T02430060  RH  031%=      5-min Rain = 0
KSW1 210125Z 24006KT 24/06 A2968 RMK A01 T02420060  RH  031%=      5-min Rain = 0
KSW1 210126Z 24006KT 24/06 A2968 RMK A01 T02420060  RH  031%=      5-min Rain = 0
KSW1 210127Z 24006KT 24/06 A2968 RMK A01 T02410060  RH  031%=      5-min Rain = 0
KSW1 210128Z 24006KT 24/06 A2968 RMK A01 T02400060  RH  031%=      5-min Rain = 0
KSW1 210129Z 24007KT 24/06 A2968 RMK A01 T02390060  RH  031%=      5-min Rain = 0
KSW1 210130Z 24006KT 24/06 A2969 RMK A01 T02390060  RH  032%=      5-min Rain = 0
KSW1 210131Z 24006KT 24/06 A2969 RMK A01 T02390060  RH  032%=      5-min Rain = 0
KSW1 210132Z 24006KT 24/06 A2969 RMK A01 T02380060  RH  032%=      5-min Rain = 0
KSW1 210133Z 24006KT 24/06 A2969 RMK A01 T02380060  RH  032%=      5-min Rain = 0
KSW1 210134Z 25006KT 24/06 A2969 RMK A01 T02380060  RH  032%=      5-min Rain = 0
KSW1 210135Z 24006KT 24/06 A2969 RMK A01 T02370060  RH  032%=      5-min Rain = 0
KSW1 210136Z 24007KT 24/06 A2969 RMK A01 T02360059  RH  032%=      5-min Rain = 0
KSW1 210137Z 25007KT 24/06 A2969 RMK A01 T02360059  RH  032%=      5-min Rain = 0
KSW1 210138Z 25007KT 24/06 A2969 RMK A01 T02350059  RH  032%=      5-min Rain = 0
KSW1 210139Z 25007KT 24/06 A2969 RMK A01 T02350059  RH  032%=      5-min Rain = 0
KSW1 210140Z 26006KT 24/06 A2969 RMK A01 T02350059  RH  032%=      5-min Rain = 0
KSW1 210141Z 27007KT 23/06 A2969 RMK A01 T02340060  RH  032%=      5-min Rain = 0
KSW1 210142Z 27007KT 23/06 A2969 RMK A01 T02340060  RH  033%=      5-min Rain = 0
KSW1 210143Z 27008KT 23/06 A2969 RMK A01 T02330060  RH  033%=      5-min Rain = 0
KSW1 210144Z 28008KT 23/06 A2969 RMK A01 T02320060  RH  033%=      5-min Rain = 0
KSW1 210145Z 28008KT 23/06 A2969 RMK A01 T02320060  RH  033%=      5-min Rain = 0
KSW1 210146Z 28008KT 23/06 A2969 RMK A01 T02320061  RH  033%=      5-min Rain = 0
KSW1 210147Z 28008KT 23/06 A297 RMK A01 T02310061  RH  033%=      5-min Rain = 0
KSW1 210148Z 28008KT 23/06 A297 RMK A01 T02300062  RH  034%=      5-min Rain = 0
KSW1 210149Z 28008KT 23/06 A297 RMK A01 T02300062  RH  034%=      5-min Rain = 0
KSW1 210150Z 28009KT 23/06 A297 RMK A01 T02290062  RH  034%=      5-min Rain = 0
KSW1 210151Z 28008KT 23/06 A297 RMK A01 T02300062  RH  034%=      5-min Rain = 0
KSW1 210152Z 28008KT 23/06 A297 RMK A01 T02300063  RH  034%=      5-min Rain = 0
KSW1 210153Z 28008KT 23/06 A297 RMK A01 T02300064  RH  034%=      5-min Rain = 0
KSW1 210154Z 28008KT 23/06 A297 RMK A01 T02300064  RH  034%=      5-min Rain = 0
KSW1 210155Z 28008KT 23/07 A297 RMK A01 T02300066  RH  035%=      5-min Rain = 0
KSW1 210156Z 28008KT 23/07 A297 RMK A01 T02290066  RH  035%=      5-min Rain = 0
KSW1 210157Z 29009KT 23/07 A297 RMK A01 T02290067  RH  035%=      5-min Rain = 0
KSW1 210158Z 28009KT 23/07 A297 RMK A01 T02290067  RH  035%=      5-min Rain = 0
KSW1 210159Z 28009KT 23/07 A297 RMK A01 T02290067  RH  035%=      5-min Rain = 0
KSW1 210200Z 29008KT 23/07 A297 RMK A01 T02290067  RH  035%=      5-min Rain = 0
KSW1 210201Z 29009KT 23/07 A297 RMK A01 T02300067  RH  035%=      5-min Rain = 0
KSW1 210202Z 29008KT 23/07 A297 RMK A01 T02310067  RH  035%=      5-min Rain = 0
KSW1 210203Z 29009KT 23/07 A2971 RMK A01 T02310067  RH  035%=      5-min Rain = 0
KSW1 210204Z 28008KT 23/07 A2971 RMK A01 T02310067  RH  035%=      5-min Rain = 0
KSW1 210205Z 28009KT 23/07 A2971 RMK A01 T02310066  RH  034%=      5-min Rain = 0
KSW1 210206Z 28010KT 23/07 A2971 RMK A01 T02320065  RH  034%=      5-min Rain = 0
KSW1 210207Z 28010KT 24/06 A2971 RMK A01 T02350064  RH  033%=      5-min Rain = 0
KSW1 210208Z 28011KT 24/06 A2971 RMK A01 T02360062  RH  033%=      5-min Rain = 0
KSW1 210209Z 28011KT 24/06 A2971 RMK A01 T02390061  RH  032%=      5-min Rain = 0
KSW1 210210Z 28010KT 24/06 A2971 RMK A01 T02410061  RH  031%=      5-min Rain = 0
KSW1 210211Z 28011KT 24/06 A2971 RMK A01 T02420060  RH  031%=      5-min Rain = 0
KSW1 210212Z 28009KT 24/06 A2971 RMK A01 T02430060  RH  031%=      5-min Rain = 0
KSW1 210213Z 28012KT 24/06 A2971 RMK A01 T02430059  RH  031%=      5-min Rain = 0
KSW1 210214Z 27010KT 25/06 A2971 RMK A01 T02450058  RH  030%=      5-min Rain = 0
KSW1 210215Z 28010KT 25/06 A2971 RMK A01 T02460057  RH  030%=      5-min Rain = 0
KSW1 210216Z 28011KT 25/06 A2971 RMK A01 T02480057  RH  029%=      5-min Rain = 0
KSW1 210217Z 28009KT 25/06 A2971 RMK A01 T02480057  RH  029%=      5-min Rain = 0
KSW1 210218Z 28010KT 25/06 A2971 RMK A01 T02480057  RH  029%=      5-min Rain = 0
KSW1 210219Z 28009KT 25/06 A2971 RMK A01 T02480056  RH  029%=      5-min Rain = 0
KSW1 210220Z 28011KT 25/06 A2971 RMK A01 T02480055  RH  029%=      5-min Rain = 0
KSW1 210221Z 28010KT 25/06 A2971 RMK A01 T02490055  RH  029%=      5-min Rain = 0
KSW1 210222Z 28010KT 25/06 A2971 RMK A01 T02490055  RH  029%=      5-min Rain = 0
KSW1 210223Z 27010KT 25/06 A2971 RMK A01 T02490055  RH  029%=      5-min Rain = 0
KSW1 210224Z 27009KT 25/05 A2971 RMK A01 T02480054  RH  029%=      5-min Rain = 0
KSW1 210225Z 27008KT 25/05 A2971 RMK A01 T02480054  RH  029%=      5-min Rain = 0
KSW1 210226Z 27008KT 25/05 A2971 RMK A01 T02480054  RH  029%=      5-min Rain = 0
KSW1 210227Z 27009KT 25/05 A2971 RMK A01 T02470054  RH  029%=      5-min Rain = 0
KSW1 210228Z 26008KT 25/05 A2971 RMK A01 T02460054  RH  029%=      5-min Rain = 0
KSW1 210229Z 27008KT 25/05 A2971 RMK A01 T02450054  RH  029%=      5-min Rain = 0
KSW1 210230Z 26008KT 24/05 A2971 RMK A01 T02440054  RH  029%=      5-min Rain = 0
KSW1 210231Z 26007KT 24/05 A2971 RMK A01 T02430053  RH  029%=      5-min Rain = 0
KSW1 210232Z 26007KT 24/05 A2971 RMK A01 T02430054  RH  029%=      5-min Rain = 0
KSW1 210233Z 26006KT 24/05 A2971 RMK A01 T02420054  RH  030%=      5-min Rain = 0
KSW1 210234Z 26006KT 24/06 A2971 RMK A01 T02380056  RH  031%=      5-min Rain = 0
KSW1 210235Z 26006KT 23/06 A2971 RMK A01 T02340057  RH  032%=      5-min Rain = 0
KSW1 210236Z 26005KT 23/06 A2971 RMK A01 T02300057  RH  033%=      5-min Rain = 0
KSW1 210237Z 26005KT 23/06 A2971 RMK A01 T02270056  RH  033%=      5-min Rain = 0
KSW1 210238Z 27005KT 23/06 A2971 RMK A01 T02250057  RH  034%=      5-min Rain = 0
KSW1 210239Z 26006KT 22/06 A2971 RMK A01 T02230057  RH  034%=      5-min Rain = 0
KSW1 210240Z 27005KT 22/06 A2971 RMK A01 T02220056  RH  034%=      5-min Rain = 0
KSW1 210241Z 26006KT 22/06 A2971 RMK A01 T02220056  RH  034%=      5-min Rain = 0
KSW1 210242Z 27006KT 22/06 A2971 RMK A01 T02220055  RH  034%=      5-min Rain = 0
KSW1 210243Z 27007KT 22/06 A2971 RMK A01 T02240055  RH  033%=      5-min Rain = 0
KSW1 210244Z 28008KT 22/05 A2971 RMK A01 T02240054  RH  033%=      5-min Rain = 0
KSW1 210245Z 28009KT 23/05 A2971 RMK A01 T02270053  RH  032%=      5-min Rain = 0
KSW1 210246Z 28009KT 23/05 A2971 RMK A01 T02290052  RH  032%=      5-min Rain = 0
KSW1 210247Z 28010KT 23/05 A2971 RMK A01 T02320052  RH  031%=      5-min Rain = 0
KSW1 210248Z 28010KT 23/05 A2971 RMK A01 T02330052  RH  031%=      5-min Rain = 0
KSW1 210249Z 29011KT 23/05 A2971 RMK A01 T02330051  RH  031%=      5-min Rain = 0
KSW1 210250Z 28011KT 23/05 A2971 RMK A01 T02340049  RH  030%=      5-min Rain = 0
KSW1 210251Z 28010KT 24/05 A2971 RMK A01 T02360049  RH  030%=      5-min Rain = 0
KSW1 210252Z 29011KT 24/05 A2971 RMK A01 T02360047  RH  029%=      5-min Rain = 0
KSW1 210253Z 28013KT 24/05 A2971 RMK A01 T02370045  RH  029%=      5-min Rain = 0
KSW1 210254Z 29012KT 24/05 A2971 RMK A01 T02390045  RH  028%=      5-min Rain = 0
KSW1 210255Z 28011KT 24/04 A2971 RMK A01 T02400044  RH  028%=      5-min Rain = 0
KSW1 210256Z 28009KT 24/04 A2971 RMK A01 T02400043  RH  028%=      5-min Rain = 0
KSW1 210257Z 29010KT 24/04 A2971 RMK A01 T02400044  RH  028%=      5-min Rain = 0
KSW1 210258Z 29010KT 24/04 A2971 RMK A01 T02400043  RH  028%=      5-min Rain = 0
KSW1 210259Z 28010KT 24/04 A2971 RMK A01 T02390042  RH  028%=      5-min Rain = 0
KSW1 210300Z 28012KT 24/04 A2971 RMK A01 T02390041  RH  028%=      5-min Rain = 0
KSW1 210301Z 28010KT 24/04 A2971 RMK A01 T02400040  RH  027%=      5-min Rain = 0
KSW1 210302Z 28010KT 24/04 A2971 RMK A01 T02410041  RH  027%=      5-min Rain = 0
KSW1 210303Z 28010KT 24/04 A2971 RMK A01 T02400040  RH  027%=      5-min Rain = 0
KSW1 210304Z 28010KT 24/04 A2971 RMK A01 T02390040  RH  027%=      5-min Rain = 0
KSW1 210305Z 28012KT 24/04 A2971 RMK A01 T02390039  RH  027%=      5-min Rain = 0
KSW1 210306Z 28011KT 24/04 A2971 RMK A01 T02390038  RH  027%=      5-min Rain = 0
KSW1 210307Z 28011KT 24/04 A2971 RMK A01 T02390038  RH  027%=      5-min Rain = 0
KSW1 210308Z 28010KT 24/04 A2971 RMK A01 T02400037  RH  027%=      5-min Rain = 0
KSW1 210309Z 28010KT 24/04 A2971 RMK A01 T02400038  RH  027%=      5-min Rain = 0
KSW1 210310Z 28011KT 24/04 A2971 RMK A01 T02390036  RH  027%=      5-min Rain = 0
KSW1 210311Z 28009KT 24/04 A2972 RMK A01 T02400036  RH  026%=      5-min Rain = 0
KSW1 210312Z 27010KT 24/04 A2972 RMK A01 T02400036  RH  026%=      5-min Rain = 0
KSW1 210313Z 27009KT 24/04 A2972 RMK A01 T02410035  RH  026%=      5-min Rain = 0
KSW1 210314Z 27009KT 24/04 A2972 RMK A01 T02410036  RH  026%=      5-min Rain = 0
KSW1 210315Z 27009KT 24/04 A2972 RMK A01 T02400035  RH  026%=      5-min Rain = 0
KSW1 210316Z 27008KT 24/04 A2972 RMK A01 T02400035  RH  026%=      5-min Rain = 0
KSW1 210317Z 27009KT 24/04 A2972 RMK A01 T02390036  RH  027%=      5-min Rain = 0
KSW1 210318Z 27010KT 24/04 A2972 RMK A01 T02380035  RH  027%=      5-min Rain = 0
KSW1 210319Z 27009KT 24/04 A2972 RMK A01 T02380035  RH  027%=      5-min Rain = 0
KSW1 210320Z 28008KT 24/04 A2972 RMK A01 T02380035  RH  027%=      5-min Rain = 0
KSW1 210321Z 27008KT 24/04 A2972 RMK A01 T02370035  RH  027%=      5-min Rain = 0
KSW1 210322Z 27009KT 24/04 A2972 RMK A01 T02370035  RH  027%=      5-min Rain = 0
KSW1 210323Z 27009KT 24/04 A2972 RMK A01 T02360035  RH  027%=      5-min Rain = 0
KSW1 210324Z 27010KT 24/03 A2972 RMK A01 T02360034  RH  027%=      5-min Rain = 0
KSW1 210325Z 27009KT 24/03 A2972 RMK A01 T02360034  RH  027%=      5-min Rain = 0
KSW1 210326Z 27009KT 24/03 A2972 RMK A01 T02360034  RH  027%=      5-min Rain = 0
KSW1 210327Z 28011KT 24/03 A2972 RMK A01 T02350034  RH  027%=      5-min Rain = 0
KSW1 210328Z 27010KT 24/03 A2972 RMK A01 T02350033  RH  027%=      5-min Rain = 0
KSW1 210329Z 28009KT 24/03 A2972 RMK A01 T02350034  RH  027%=      5-min Rain = 0
KSW1 210330Z 27008KT 23/03 A2972 RMK A01 T02340034  RH  027%=      5-min Rain = 0
KSW1 210331Z 27010KT 23/03 A2972 RMK A01 T02330034  RH  027%=      5-min Rain = 0
KSW1 210332Z 28010KT 23/03 A2973 RMK A01 T02320034  RH  027%=      5-min Rain = 0
KSW1 210333Z 28011KT 23/03 A2973 RMK A01 T02320033  RH  027%=      5-min Rain = 0
KSW1 210334Z 28012G17KT 23/03 A2973 RMK A01 T02320032  RH  027%=      5-min Rain = 0
KSW1 210335Z 27013KT 23/03 A2973 RMK A01 T02330030  RH  027%=      5-min Rain = 0
KSW1 210336Z 28015KT 24/03 A2973 RMK A01 T02350029  RH  026%=      5-min Rain = 0
KSW1 210337Z 28014G21KT 24/03 A2973 RMK A01 T02360028  RH  026%=      5-min Rain = 0
KSW1 210338Z 28017KT 24/03 A2973 RMK A01 T02380027  RH  025%=      5-min Rain = 0
KSW1 210339Z 28017G23KT 24/03 A2973 RMK A01 T02400025  RH  025%=      5-min Rain = 0
KSW1 210340Z 28015KT 24/03 A2973 RMK A01 T02420026  RH  024%=      5-min Rain = 0
KSW1 210341Z 28013KT 24/03 A2974 RMK A01 T02420026  RH  024%=      5-min Rain = 0
KSW1 210342Z 28011KT 24/03 A2974 RMK A01 T02410026  RH  024%=      5-min Rain = 0
KSW1 210343Z 28016G22KT 24/03 A2974 RMK A01 T02400025  RH  025%=      5-min Rain = 0
KSW1 210344Z 29017G24KT 24/02 A2974 RMK A01 T02400019  RH  024%=      5-min Rain = 0
KSW1 210345Z 30016G21KT 24/02 A2974 RMK A01 T02420016  RH  023%=      5-min Rain = 0
KSW1 210346Z 31013KT 24/02 A2974 RMK A01 T02430019  RH  023%=      5-min Rain = 0
KSW1 210347Z 30018G23KT 24/02 A2975 RMK A01 T02420016  RH  023%=      5-min Rain = 0
KSW1 210348Z 31013KT 24/01 A2975 RMK A01 T02410009  RH  022%=      5-min Rain = 0
KSW1 210349Z 31015KT 24/01 A2975 RMK A01 T02410008  RH  022%=      5-min Rain = 0
KSW1 210350Z 31010KT 24/01 A2975 RMK A01 T02410009  RH  022%=      5-min Rain = 0
KSW1 210351Z 32011G16KT 24/01 A2975 RMK A01 T02400009  RH  022%=      5-min Rain = 0
KSW1 210352Z 32012KT 24/01 A2975 RMK A01 T02390007  RH  022%=      5-min Rain = 0
KSW1 210353Z 32011KT 24/01 A2975 RMK A01 T02390006  RH  022%=      5-min Rain = 0
KSW1 210354Z 32013G18KT 24/00 A2975 RMK A01 T02380003  RH  021%=      5-min Rain = 0
KSW1 210355Z 32012G17KT 24/00 A2975 RMK A01 T02380001  RH  021%=      5-min Rain = 0
KSW1 210356Z 32013KT 24/M00 A2975 RMK A01 T02381003  RH  020%=      5-min Rain = 0
KSW1 210357Z 32013G18KT 24/M01 A2975 RMK A01 T02381009  RH  019%=      5-min Rain = 0
KSW1 210358Z 31015G21KT 24/M01 A2975 RMK A01 T02371014  RH  019%=      5-min Rain = 0
KSW1 210359Z 32014KT 24/M02 A2975 RMK A01 T02371015  RH  019%=      5-min Rain = 0
KSW1 210400Z 32014KT 24/M02 A2975 RMK A01 T02371016  RH  019%=      5-min Rain = 0
KSW1 210401Z 32014G19KT 24/M02 A2976 RMK A01 T02361018  RH  018%=      5-min Rain = 0
KSW1 210402Z 32016KT 24/M02 A2975 RMK A01 T02351024  RH  018%=      5-min Rain = 0
KSW1 210403Z 32013KT 24/M02 A2976 RMK A01 T02361023  RH  018%=      5-min Rain = 0
KSW1 210404Z 32012KT 24/M02 A2976 RMK A01 T02351022  RH  018%=      5-min Rain = 0
KSW1 210405Z 32012G19KT 23/M02 A2976 RMK A01 T02341022  RH  018%=      5-min Rain = 0
KSW1 210406Z 32015KT 23/M03 A2976 RMK A01 T02331027  RH  018%=      5-min Rain = 0
KSW1 210407Z 32013KT 23/M03 A2976 RMK A01 T02331030  RH  017%=      5-min Rain = 0
KSW1 210408Z 32015KT 23/M03 A2976 RMK A01 T02331030  RH  017%=      5-min Rain = 0
KSW1 210409Z 32014KT 23/M04 A2976 RMK A01 T02321036  RH  016%=      5-min Rain = 0
KSW1 210410Z 32014KT 23/M04 A2976 RMK A01 T02321036  RH  017%=      5-min Rain = 0
KSW1 210411Z 32014KT 23/M04 A2976 RMK A01 T02311039  RH  016%=      5-min Rain = 0
KSW1 210412Z 32012KT 23/M04 A2976 RMK A01 T02311039  RH  016%=      5-min Rain = 0
KSW1 210413Z 32011KT 23/M04 A2976 RMK A01 T02301039  RH  016%=      5-min Rain = 0
KSW1 210414Z 32011KT 23/M04 A2976 RMK A01 T02291041  RH  016%=      5-min Rain = 0
KSW1 210415Z 32013KT 23/M05 A2976 RMK A01 T02281045  RH  016%=      5-min Rain = 0
KSW1 210416Z 33011G16KT 23/M05 A2976 RMK A01 T02281046  RH  016%=      5-min Rain = 0
KSW1 210417Z 33014KT 23/M05 A2976 RMK A01 T02281048  RH  015%=      5-min Rain = 0
KSW1 210418Z 33012G18KT 23/M05 A2976 RMK A01 T02271048  RH  015%=      5-min Rain = 0
KSW1 210419Z 33013KT 23/M05 A2976 RMK A01 T02261050  RH  015%=      5-min Rain = 0
KSW1 210420Z 33013KT 23/M05 A2977 RMK A01 T02251052  RH  015%=      5-min Rain = 0
KSW1 210421Z 32012KT 23/M05 A2977 RMK A01 T02251054  RH  015%=      5-min Rain = 0
KSW1 210422Z 33012KT 23/M06 A2977 RMK A01 T02251056  RH  015%=      5-min Rain = 0
KSW1 210423Z 33013KT 23/M06 A2977 RMK A01 T02251057  RH  015%=      5-min Rain = 0
KSW1 210424Z 33013G18KT 23/M06 A2977 RMK A01 T02261058  RH  015%=      5-min Rain = 0
KSW1 210425Z 33014KT 23/M06 A2977 RMK A01 T02261060  RH  014%=      5-min Rain = 0
KSW1 210426Z 33013KT 23/M06 A2977 RMK A01 T02261059  RH  014%=      5-min Rain = 0
KSW1 210427Z 33014KT 23/M06 A2977 RMK A01 T02251060  RH  014%=      5-min Rain = 0
KSW1 210428Z 33013KT 23/M06 A2978 RMK A01 T02251059  RH  014%=      5-min Rain = 0
KSW1 210429Z 33011KT 23/M06 A2978 RMK A01 T02251059  RH  014%=      5-min Rain = 0
KSW1 210430Z 32012KT 22/M06 A2978 RMK A01 T02241059  RH  015%=      5-min Rain = 0
KSW1 210431Z 33011KT 22/M06 A2978 RMK A01 T02231060  RH  015%=      5-min Rain = 0
KSW1 210432Z 33011KT 22/M06 A2978 RMK A01 T02221060  RH  015%=      5-min Rain = 0
KSW1 210433Z 32011KT 22/M06 A2978 RMK A01 T02221059  RH  015%=      5-min Rain = 0
KSW1 210434Z 33010KT 22/M06 A2979 RMK A01 T02211059  RH  015%=      5-min Rain = 0
KSW1 210435Z 33012KT 22/M06 A2979 RMK A01 T02211059  RH  015%=      5-min Rain = 0
KSW1 210436Z 33012G18KT 22/M06 A2979 RMK A01 T02201060  RH  015%=      5-min Rain = 0
KSW1 210437Z 34014KT 22/M06 A2979 RMK A01 T02191061  RH  015%=      5-min Rain = 0
KSW1 210438Z 33016KT 22/M06 A2979 RMK A01 T02201063  RH  014%=      5-min Rain = 0
KSW1 210439Z 33013KT 22/M06 A2979 RMK A01 T02211064  RH  014%=      5-min Rain = 0
KSW1 210440Z 33012KT 22/M06 A2979 RMK A01 T02211062  RH  015%=      5-min Rain = 0
KSW1 210441Z 33013KT 22/M06 A2979 RMK A01 T02201063  RH  014%=      5-min Rain = 0
KSW1 210442Z 33013KT 22/M06 A2979 RMK A01 T02201063  RH  014%=      5-min Rain = 0
KSW1 210443Z 34013KT 22/M06 A2979 RMK A01 T02191063  RH  015%=      5-min Rain = 0
KSW1 210444Z 34011KT 22/M06 A298 RMK A01 T02181063  RH  015%=      5-min Rain = 0
KSW1 210445Z 33010KT 22/M06 A298 RMK A01 T02171063  RH  015%=      5-min Rain = 0
KSW1 210446Z 34011KT 22/M06 A298 RMK A01 T02171063  RH  015%=      5-min Rain = 0
KSW1 210447Z 33012KT 22/M06 A298 RMK A01 T02161064  RH  015%=      5-min Rain = 0
KSW1 210448Z 33010KT 22/M06 A298 RMK A01 T02161064  RH  015%=      5-min Rain = 0
KSW1 210449Z 35013G22KT 22/M06 A2979 RMK A01 T02151064  RH  015%=      5-min Rain = 0
KSW1 210450Z 34018KT 22/M07 A2979 RMK A01 T02151072  RH  014%=      5-min Rain = 0
KSW1 210451Z 33019G25KT 22/M07 A2979 RMK A01 T02171074  RH  014%=      5-min Rain = 0
KSW1 210452Z 33016G22KT 22/M07 A298 RMK A01 T02181073  RH  014%=      5-min Rain = 0
KSW1 210453Z 34015G21KT 22/M07 A2979 RMK A01 T02171074  RH  014%=      5-min Rain = 0
KSW1 210454Z 33012KT 22/M07 A298 RMK A01 T02161072  RH  014%=      5-min Rain = 0
KSW1 210455Z 33013KT 21/M07 A298 RMK A01 T02141072  RH  014%=      5-min Rain = 0
KSW1 210456Z 33016KT 21/M08 A298 RMK A01 T02131076  RH  014%=      5-min Rain = 0
KSW1 210457Z 33016G21KT 21/M08 A298 RMK A01 T02131078  RH  013%=      5-min Rain = 0
KSW1 210458Z 33017KT 21/M08 A298 RMK A01 T02141079  RH  013%=      5-min Rain = 0
KSW1 210459Z 33012KT 21/M08 A298 RMK A01 T02131077  RH  013%=      5-min Rain = 0

Page generated in 0.2531 seconds.